AF762 / F-GSQO 7700 Squawk Report (23rd of November, 2021)

Aircraft B77W Reg No. F-GSQO Age 15 years old
Model 777 Jet engines 2 First flight 05-06-06
Registered 16-06-06 Rollout 14-05-06 Delivered 14-06-06
Construction No. 32961 Line No. 0570 Series 328(ER)
ADSHEX 394A0E Airline name Air France Owner N/A
Airfield based Paris-Orly~Essonne~F First tracked N/A

Flight history for F-GSQO

Route Flight No Date Playback
Le Raizet (PTP) - Orly (ORY) AF789 2022-01-20 23:02:00
Orly (ORY) - Le Raizet (PTP) AF776 2022-01-20 18:42:00
Roland Garros Airport (RUN) - Orly (ORY) AF671 2022-01-20 06:36:00
Orly (ORY) - Roland Garros Airport (RUN) AF642 2022-01-19 06:36:00
Orly (ORY) - Roland Garros Airport (RUN) AF642 2022-01-19 00:49:00
Le Raizet (PTP) - Orly (ORY) AF789 2022-01-17 08:03:00
Orly (ORY) - Le Raizet (PTP) AF776 2022-01-16 21:30:00
Le Lamentin (FDF) - Orly (ORY) AF841 2022-01-16 06:07:00
Orly (ORY) - Le Lamentin (FDF) AF842 2022-01-15 22:21:00
Le Lamentin (FDF) - Orly (ORY) AF841 2022-01-15 05:54:00
Orly (ORY) - Le Lamentin (FDF) AF842 2022-01-14 22:10:00
Roland Garros Airport (RUN) - Orly (ORY) AF671 2022-01-14 06:46:00
???? N/A 2022-01-13 06:50:00
Roland Garros Airport (RUN) - Orly (ORY) AF645 2022-01-12 17:38:00
Orly (ORY) - Roland Garros Airport (RUN) AF644 2022-01-12 14:12:00
Orly (ORY) - Roland Garros Airport (RUN) AF644 2022-01-12 07:06:00
Roland Garros Airport (RUN) - Orly (ORY) AF645 2022-01-10 19:08:00
Orly (ORY) - Roland Garros Airport (RUN) AF644 2022-01-10 05:42:00
Le Raizet (PTP) - Orly (ORY) AF797 2022-01-09 10:11:00
Orly (ORY) - Le Raizet (PTP) AF790 2022-01-09 02:24:00
Time Lat Lon Altitude Heading Speed Vertical Rate
2021-11-23 15:18:13 GMT 49.000477 2.589939 0 264 13 0
2021-11-23 15:17:44 GMT 49.000629 2.592304 0 278 11 0
2021-11-23 15:17:42 GMT 49.000652 2.592484 0 289 10 0
2021-11-23 15:17:31 GMT 49.000454 2.593099 0 345 11 0
2021-11-23 15:17:20 GMT 48.999893 2.593337 0 8 12 0
2021-11-23 15:17:12 GMT 48.999512 2.593261 0 39 12 0
2021-11-23 15:16:49 GMT 48.998848 2.591743 0 64 13 0
2021-11-23 15:16:40 GMT 48.998623 2.590978 0 64 12 0
2021-11-23 15:16:31 GMT 48.998444 2.590388 0 64 11 0
2021-11-23 15:16:18 GMT 48.998119 2.589287 0 64 17 0
2021-11-23 15:16:05 GMT 48.997684 2.587861 0 73 20 0
2021-11-23 15:16:02 GMT 48.997581 2.587353 0 78 23 0
2021-11-23 15:15:48 GMT 48.997395 2.584606 0 84 44 0
2021-11-23 15:15:41 GMT 48.997253 2.582130 0 84 56 0
2021-11-23 15:15:31 GMT 48.997021 2.577667 -100 84 80 0
2021-11-23 15:15:12 GMT 48.996277 2.564079 -125 84 142 -192
2021-11-23 15:15:06 GMT 48.995953 2.558080 -100 85 147 -256
2021-11-23 15:14:59 GMT 48.995590 2.550518 0 85 148 -832
2021-11-23 15:14:49 GMT 48.995041 2.540518 150 85 144 -768
2021-11-23 15:14:38 GMT 48.994461 2.529819 275 85 142 -832
2021-11-23 15:14:34 GMT 48.994228 2.525554 350 85 141 -768
2021-11-23 15:14:28 GMT 48.993904 2.519411 425 85 141 -704
2021-11-23 15:14:24 GMT 48.993622 2.514207 475 85 140 -832
2021-11-23 15:14:20 GMT 48.993439 2.511432 575 85 140 -896
2021-11-23 15:14:16 GMT 48.993301 2.507982 575 85 140 -896
2021-11-23 15:14:12 GMT 48.993065 2.503871 625 85 139 -896
2021-11-23 15:14:09 GMT 48.992844 2.500164 675 85 139 -832
2021-11-23 15:14:05 GMT 48.992706 2.497347 725 85 138 -768
2021-11-23 15:14:02 GMT 48.992523 2.494319 750 85 137 -768
2021-11-23 15:13:59 GMT 48.992367 2.491511 800 85 138 -704
2021-11-23 15:13:56 GMT 48.992020 2.485234 850 85 137 -704
2021-11-23 15:13:53 GMT 48.992020 2.485234 900 84 137 -768
2021-11-23 15:13:49 GMT 48.991837 2.481854 925 85 136 -704
2021-11-23 15:13:46 GMT 48.991669 2.478790 950 85 137 -704
2021-11-23 15:13:43 GMT 48.991482 2.475465 1,025 85 137 -768
2021-11-23 15:13:40 GMT 48.991341 2.472213 1,050 85 137 -704
2021-11-23 15:13:37 GMT 48.991112 2.468671 1,100 85 137 -768
2021-11-23 15:13:33 GMT 48.990971 2.465708 1,125 85 137 -768
2021-11-23 15:13:29 GMT 48.990784 2.462064 1,175 85 137 -768
2021-11-23 15:13:26 GMT 48.990459 2.455950 1,300 85 138 -768
2021-11-23 15:13:23 GMT 48.990326 2.453684 1,300 85 138 0
2021-11-23 15:13:20 GMT 48.990326 2.453684 1,300 85 139 -768
2021-11-23 15:13:17 GMT 48.990143 2.450303 1,375 85 139 -768
2021-11-23 15:13:13 GMT 48.989868 2.445444 1,400 85 141 -768
2021-11-23 15:13:08 GMT 48.989639 2.441500 1,450 85 143 -896
2021-11-23 15:13:05 GMT 48.989529 2.439254 1,475 84 146 -832
2021-11-23 15:13:02 GMT 48.989319 2.435725 1,525 85 147 -768
2021-11-23 15:12:58 GMT 48.988907 2.427979 1,625 85 147 -832
2021-11-23 15:12:52 GMT 48.988781 2.425521 1,650 85 147 -832
2021-11-23 15:12:48 GMT 48.988503 2.420462 1,725 85 146 -832
2021-11-23 15:12:45 GMT 48.988403 2.418753 1,750 85 146 -896
2021-11-23 15:12:41 GMT 48.988129 2.413812 1,825 85 146 -896
2021-11-23 15:12:38 GMT 48.987991 2.411210 1,875 85 146 -832
2021-11-23 15:12:35 GMT 48.987850 2.408463 1,900 85 145 -768
2021-11-23 15:12:32 GMT 48.987625 2.404809 1,925 85 145 -768
2021-11-23 15:12:28 GMT 48.987396 2.400654 2,000 85 145 -832
2021-11-23 15:12:25 GMT 48.987247 2.397983 2,025 85 145 -832
2021-11-23 15:12:22 GMT 48.986874 2.391261 2,075 85 146 -832
2021-11-23 15:12:19 GMT 48.986874 2.391261 2,100 84 147 -832
2021-11-23 15:12:16 GMT 48.986687 2.387719 2,350 84 148 -832
2021-11-23 15:12:12 GMT 48.986526 2.384808 2,225 85 149 -896
2021-11-23 15:12:09 GMT 48.986343 2.381357 2,275 85 150 -896
2021-11-23 15:12:06 GMT 48.986130 2.378034 2,300 85 150 -896
2021-11-23 15:12:03 GMT 48.985943 2.374276 2,300 85 150 -896
2021-11-23 15:11:58 GMT 48.985657 2.369103 2,425 85 150 -896
2021-11-23 15:11:55 GMT 48.985477 2.365313 2,475 85 150 -896
2021-11-23 15:11:52 GMT 48.985291 2.362133 2,525 85 150 -896
2021-11-23 15:11:49 GMT 48.985199 2.360652 2,550 85 150 -896
2021-11-23 15:11:45 GMT 48.984966 2.355845 2,600 85 150 -832
2021-11-23 15:11:41 GMT 48.984734 2.351580 2,675 85 150 -832
2021-11-23 15:11:37 GMT 48.984467 2.347553 2,775 85 151 -832
2021-11-23 15:11:34 GMT 48.984264 2.343991 2,875 85 151 -832
2021-11-23 15:11:31 GMT 48.984127 2.340883 2,800 85 151 -832
2021-11-23 15:11:28 GMT 48.983894 2.336980 2,875 85 151 -832
2021-11-23 15:11:25 GMT 48.983734 2.334524 3,025 85 151 -896
2021-11-23 15:11:21 GMT 48.983521 2.330547 2,950 85 151 -896
2021-11-23 15:11:18 GMT 48.983368 2.327341 3,025 85 151 -832
2021-11-23 15:11:15 GMT 48.983139 2.323820 3,025 85 151 -896
2021-11-23 15:11:11 GMT 48.982918 2.319633 3,100 85 151 -896
2021-11-23 15:11:07 GMT 48.982685 2.315152 3,175 85 151 -832
2021-11-23 15:11:04 GMT 48.982311 2.308358 3,475 85 152 -896
2021-11-23 15:11:00 GMT 48.982311 2.308358 3,225 85 151 -896
2021-11-23 15:10:57 GMT 48.982124 2.305033 3,300 85 152 -832
2021-11-23 15:10:54 GMT 48.981892 2.301274 3,350 85 152 -832
2021-11-23 15:10:51 GMT 48.981522 2.294408 3,425 85 152 -896
2021-11-23 15:10:47 GMT 48.981522 2.294408 3,450 85 152 -896
2021-11-23 15:10:44 GMT 48.981285 2.290866 3,475 85 152 -896
2021-11-23 15:10:41 GMT 48.980942 2.283889 3,550 85 152 -896
2021-11-23 15:10:38 GMT 48.980942 2.283889 3,575 85 153 -832
2021-11-23 15:10:34 GMT 48.980728 2.280458 3,650 85 153 -960
2021-11-23 15:10:30 GMT 48.980484 2.276212 3,700 84 153 -960
2021-11-23 15:10:27 GMT 48.980309 2.272724 3,750 84 154 -896
2021-11-23 15:10:24 GMT 48.980122 2.269400 3,775 84 154 -896
2021-11-23 15:10:20 GMT 48.979843 2.264991 3,850 84 154 -832
2021-11-23 15:10:17 GMT 48.979656 2.262244 3,900 84 155 -896
2021-11-23 15:10:14 GMT 48.979431 2.258536 3,900 84 155 -896
2021-11-23 15:10:10 GMT 48.979202 2.254310 4,000 85 155 -960
2021-11-23 15:10:07 GMT 48.978973 2.250085 4,050 85 156 -960
2021-11-23 15:10:03 GMT 48.978821 2.247427 4,075 85 156 -960
2021-11-23 15:10:00 GMT 48.978588 2.243162 4,150 85 156 -960
2021-11-23 15:09:57 GMT 48.978401 2.239982 4,225 85 156 -960
2021-11-23 15:09:54 GMT 48.978241 2.236704 4,225 85 156 -960
2021-11-23 15:09:51 GMT 48.978012 2.232619 4,300 85 157 -1088
2021-11-23 15:09:48 GMT 48.977703 2.226900 4,350 85 157 -1152
2021-11-23 15:09:45 GMT 48.977703 2.226900 4,525 85 157 -1152
2021-11-23 15:09:41 GMT 48.977463 2.222689 4,500 84 157 -1024
2021-11-23 15:09:38 GMT 48.977188 2.218182 4,550 84 158 -832
2021-11-23 15:09:35 GMT 48.977097 2.215986 4,600 84 158 -320
2021-11-23 15:09:30 GMT 48.976730 2.210435 4,600 84 159 -64
2021-11-23 15:09:27 GMT 48.976547 2.206984 4,600 84 160 -64
2021-11-23 15:09:24 GMT 48.976398 2.204277 4,600 84 162 -64
2021-11-23 15:09:21 GMT 48.976135 2.200012 4,600 85 165 0
2021-11-23 15:09:17 GMT 48.975700 2.192495 4,600 84 165 64
2021-11-23 15:09:14 GMT 48.975700 2.192495 4,600 84 165 0
2021-11-23 15:09:09 GMT 48.975311 2.186491 4,600 84 165 0
2021-11-23 15:09:06 GMT 48.974945 2.180011 4,600 84 165 0
2021-11-23 15:09:03 GMT 48.974670 2.175716 4,600 84 165 0
2021-11-23 15:09:00 GMT 48.974442 2.172124 4,600 84 165 0
2021-11-23 15:08:57 GMT 48.974442 2.172124 4,600 84 165 0
2021-11-23 15:08:54 GMT 48.974258 2.169366 4,600 84 165 0
2021-11-23 15:08:50 GMT 48.973938 2.163321 4,600 85 165 0
2021-11-23 15:08:46 GMT 48.973663 2.158602 4,600 85 165 0
2021-11-23 15:08:43 GMT 48.973572 2.156137 4,600 85 165 0
2021-11-23 15:08:38 GMT 48.973328 2.151007 4,600 85 165 0
2021-11-23 15:08:35 GMT 48.972954 2.143852 4,600 84 164 0
2021-11-23 15:08:32 GMT 48.972954 2.143852 4,600 83 165 64
2021-11-23 15:08:29 GMT 48.972675 2.139804 4,600 80 165 64
2021-11-23 15:08:25 GMT 48.972198 2.135221 4,600 76 165 64
2021-11-23 15:08:22 GMT 48.971786 2.132615 4,600 73 166 64
2021-11-23 15:08:19 GMT 48.970161 2.125565 4,600 66 167 64
2021-11-23 15:08:16 GMT 48.970161 2.125565 4,600 59 170 64
2021-11-23 15:08:13 GMT 48.968857 2.121770 4,575 57 171 64
2021-11-23 15:08:08 GMT 48.965332 2.113812 4,575 55 176 0
2021-11-23 15:08:05 GMT 48.964249 2.111399 4,575 55 179 0
2021-11-23 15:08:02 GMT 48.964249 2.111399 4,575 55 180 -64
2021-11-23 15:07:58 GMT 48.962063 2.106628 4,575 55 185 -128
2021-11-23 15:07:54 GMT 48.960159 2.102332 4,600 55 187 -128
2021-11-23 15:07:51 GMT 48.959106 2.100008 4,600 55 188 -128
2021-11-23 15:07:46 GMT 48.956223 2.093529 4,625 55 188 -64
2021-11-23 15:07:43 GMT 48.955170 2.091276 4,625 55 192 64
2021-11-23 15:07:40 GMT 48.951828 2.083811 4,625 55 192 64
2021-11-23 15:07:37 GMT 48.951828 2.083811 4,625 55 189 128
2021-11-23 15:07:34 GMT 48.949127 2.077684 4,600 55 192 64
2021-11-23 15:07:31 GMT 48.949127 2.077684 4,600 55 192 64
2021-11-23 15:07:26 GMT 48.944977 2.068465 4,575 55 197 64
2021-11-23 15:07:23 GMT 48.943314 2.064796 4,575 55 200 64
2021-11-23 15:07:16 GMT 48.940788 2.059141 4,575 55 206 0
2021-11-23 15:07:13 GMT 48.939762 2.056756 4,600 55 208 -64
2021-11-23 15:07:08 GMT 48.936676 2.049866 4,600 56 209 0
2021-11-23 15:07:05 GMT 48.935291 2.046710 4,600 56 209 0
2021-11-23 15:07:02 GMT 48.933990 2.043746 4,600 56 209 0
2021-11-23 15:06:58 GMT 48.931618 2.038398 4,600 55 210 0
2021-11-23 15:06:55 GMT 48.928406 2.031170 4,600 56 211 0
2021-11-23 15:06:52 GMT 48.925598 2.024865 4,600 56 211 0
2021-11-23 15:06:47 GMT 48.925598 2.024865 4,600 55 216 0
2021-11-23 15:06:44 GMT 48.923611 2.020400 4,600 56 216 0
2021-11-23 15:06:41 GMT 48.922306 2.017437 4,600 56 220 0
2021-11-23 15:06:37 GMT 48.920013 2.012329 4,600 56 222 0
2021-11-23 15:06:34 GMT 48.918301 2.008474 4,575 56 225 -64
2021-11-23 15:06:31 GMT 48.915024 2.000991 4,600 56 227 0
2021-11-23 15:06:28 GMT 48.915024 2.000991 4,600 56 229 0
2021-11-23 15:06:24 GMT 48.912342 1.994886 4,600 56 230 0
2021-11-23 15:06:21 GMT 48.910854 1.991489 4,600 56 231 64
2021-11-23 15:06:15 GMT 48.907013 1.982751 4,600 56 231 0
2021-11-23 15:06:12 GMT 48.905548 1.979511 4,600 56 233 0
2021-11-23 15:06:09 GMT 48.903915 1.975732 4,600 56 233 0
2021-11-23 15:06:06 GMT 48.902195 1.971757 4,600 56 233 0
2021-11-23 15:06:03 GMT 48.900192 1.967131 4,600 57 233 0
2021-11-23 15:06:00 GMT 48.898682 1.963524 4,600 57 233 0
2021-11-23 15:05:57 GMT 48.896561 1.958602 4,600 57 233 -64
2021-11-23 15:05:53 GMT 48.894241 1.953102 4,600 57 233 -128
2021-11-23 15:05:50 GMT 48.892456 1.948806 4,600 57 233 -128
2021-11-23 15:05:46 GMT 48.890350 1.943735 4,625 57 233 -320
2021-11-23 15:05:40 GMT 48.886597 1.934861 4,675 57 237 -896
2021-11-23 15:05:35 GMT 48.881836 1.923664 4,800 56 237 -1024
2021-11-23 15:05:32 GMT 48.879570 1.918415 4,850 56 237 -960
2021-11-23 15:05:28 GMT 48.879570 1.918415 4,875 56 237 -960
2021-11-23 15:05:23 GMT 48.876499 1.911260 4,975 56 238 -896
2021-11-23 15:05:19 GMT 48.874237 1.905917 5,075 57 240 -768
2021-11-23 15:05:12 GMT 48.869610 1.895142 5,125 57 239 -832
2021-11-23 15:05:09 GMT 48.863434 1.880704 5,225 57 240 -768
2021-11-23 15:05:01 GMT 48.863434 1.880704 5,250 56 242 -704
2021-11-23 15:04:58 GMT 48.861420 1.875986 5,275 56 242 -768
2021-11-23 15:04:55 GMT 48.859726 1.872042 5,325 56 244 -832
2021-11-23 15:04:51 GMT 48.857162 1.866056 5,400 56 244 -896
2021-11-23 15:04:48 GMT 48.855225 1.861604 5,425 56 245 -896
2021-11-23 15:04:41 GMT 48.850800 1.851558 5,525 56 247 -896
2021-11-23 15:04:37 GMT 48.848785 1.846971 5,575 56 247 -960
2021-11-23 15:04:34 GMT 48.846542 1.841971 5,650 56 247 -1088
2021-11-23 15:04:31 GMT 48.844517 1.837319 5,700 56 247 -1152
2021-11-23 15:04:27 GMT 48.842281 1.832259 5,775 56 248 -1152
2021-11-23 15:04:24 GMT 48.840561 1.828356 5,850 56 249 -1088
2021-11-23 15:04:21 GMT 48.838650 1.824020 5,900 56 249 -1088
2021-11-23 15:04:18 GMT 48.836323 1.818671 5,925 56 249 -1088
2021-11-23 15:04:15 GMT 48.834274 1.813941 6,025 56 250 -1088
2021-11-23 15:04:12 GMT 48.832443 1.809716 6,075 56 250 -1152
2021-11-23 15:04:09 GMT 48.830475 1.805209 6,100 56 250 -1152
2021-11-23 15:04:05 GMT 48.827866 1.799223 6,175 56 250 -1216
2021-11-23 15:04:01 GMT 48.824982 1.792603 6,275 56 250 -1280
2021-11-23 15:03:56 GMT 48.822372 1.786616 6,425 56 250 -1344
2021-11-23 15:03:53 GMT 48.820267 1.781757 6,475 56 250 -1344
2021-11-23 15:03:50 GMT 48.818573 1.777813 6,500 56 249 -1344
2021-11-23 15:03:46 GMT 48.815979 1.771979 6,600 56 250 -1472
2021-11-23 15:03:42 GMT 48.812805 1.764714 6,725 56 247 -1664
2021-11-23 15:03:39 GMT 48.811890 1.762672 6,750 56 248 -1600
2021-11-23 15:03:35 GMT 48.808319 1.754573 6,925 56 247 -1664
2021-11-23 15:03:30 GMT 48.805923 1.749067 7,025 56 247 -1536
2021-11-23 15:03:27 GMT 48.804016 1.744784 7,100 56 247 -1408
2021-11-23 15:03:23 GMT 48.801270 1.738586 7,200 56 247 -1344
2021-11-23 15:03:20 GMT 48.799301 1.734079 7,250 56 247 -1280
2021-11-23 15:03:17 GMT 48.797501 1.729913 7,325 56 247 -1280
2021-11-23 15:03:14 GMT 48.795731 1.726010 7,400 54 248 -1280
2021-11-23 15:03:11 GMT 48.793636 1.721312 7,450 55 248 -1280
2021-11-23 15:03:07 GMT 48.790878 1.715346 7,550 54 248 -1280
2021-11-23 15:03:04 GMT 48.788841 1.711121 7,625 51 249 -1280
2021-11-23 15:03:01 GMT 48.785156 1.703937 7,725 50 249 -1344
2021-11-23 15:02:54 GMT 48.781586 1.697669 7,975 46 252 -1344
2021-11-23 15:02:50 GMT 48.777832 1.691683 7,950 46 252 -1408
2021-11-23 15:02:47 GMT 48.776001 1.688725 8,000 46 252 -1344
2021-11-23 15:02:43 GMT 48.773163 1.684289 8,100 46 252 -1216
2021-11-23 15:02:40 GMT 48.770874 1.680767 8,650 46 252 -1280
2021-11-23 15:02:36 GMT 48.767761 1.675767 8,200 46 253 -1152
2021-11-23 15:02:32 GMT 48.763794 1.669488 8,325 46 253 -1280
2021-11-23 15:02:29 GMT 48.761765 1.666260 8,325 46 253 -1280
2021-11-23 15:02:25 GMT 48.758789 1.661541 8,425 46 252 -1344
2021-11-23 15:02:22 GMT 48.755630 1.656400 8,525 46 251 -1344
2021-11-23 15:02:19 GMT 48.754028 1.653795 8,600 46 251 -1280
2021-11-23 15:02:16 GMT 48.748989 1.645709 8,700 46 252 -1280
2021-11-23 15:02:13 GMT 48.748989 1.645709 8,725 46 252 -1216
2021-11-23 15:02:10 GMT 48.746197 1.641155 8,750 41 252 -1024
2021-11-23 15:02:06 GMT 48.743500 1.637033 8,825 44 253 -1088
2021-11-23 15:02:03 GMT 48.740612 1.632843 8,900 40 254 -896
2021-11-23 15:02:00 GMT 48.738098 1.629446 8,925 37 255 -768
2021-11-23 15:01:57 GMT 48.734467 1.625109 8,975 33 256 -576
2021-11-23 15:01:52 GMT 48.729858 1.620624 9,000 27 261 -64
2021-11-23 15:01:49 GMT 48.724274 1.616219 9,000 26 265 0
2021-11-23 15:01:46 GMT 48.724274 1.616219 9,000 26 263 0
2021-11-23 15:01:42 GMT 48.719013 1.612316 9,000 26 265 0
2021-11-23 15:01:39 GMT 48.715942 1.610060 9,000 26 264 0
2021-11-23 15:01:34 GMT 48.710213 1.605739 9,000 26 263 -64
2021-11-23 15:01:31 GMT 48.707512 1.603715 9,000 26 263 -64
2021-11-23 15:01:27 GMT 48.702999 1.600318 9,000 26 263 0
2021-11-23 15:01:23 GMT 48.698181 1.596750 9,000 25 263 0
2021-11-23 15:01:20 GMT 48.695023 1.594426 9,000 25 263 64
2021-11-23 15:01:16 GMT 48.690941 1.591427 9,000 25 262 0
2021-11-23 15:01:11 GMT 48.682617 1.585412 9,000 25 263 0
2021-11-23 15:01:08 GMT 48.682617 1.585412 9,000 25 263 0
2021-11-23 15:01:05 GMT 48.678543 1.582383 9,000 26 263 0
2021-11-23 15:01:02 GMT 48.676163 1.580623 9,000 26 263 0
2021-11-23 15:00:59 GMT 48.666046 1.573228 9,000 25 263 64
2021-11-23 15:00:54 GMT 48.666046 1.573228 9,000 25 263 0
2021-11-23 15:00:51 GMT 48.663528 1.571397 9,000 25 264 64
2021-11-23 15:00:48 GMT 48.659985 1.568804 9,000 25 264 64
2021-11-23 15:00:42 GMT 48.653366 1.564073 9,000 25 265 64
2021-11-23 15:00:39 GMT 48.649651 1.561360 9,000 25 266 0
2021-11-23 15:00:31 GMT 48.641457 1.555360 9,000 25 266 -64
2021-11-23 15:00:28 GMT 48.638443 1.553227 9,000 25 266 -64
2021-11-23 15:00:25 GMT 48.635010 1.550692 9,000 25 266 -128
2021-11-23 15:00:22 GMT 48.628143 1.545747 9,025 25 266 -256
2021-11-23 15:00:19 GMT 48.628143 1.545747 9,075 26 268 -960
2021-11-23 15:00:15 GMT 48.624252 1.542945 9,050 25 267 -640
2021-11-23 15:00:11 GMT 48.618645 1.538881 9,125 26 268 -896
2021-11-23 15:00:08 GMT 48.612640 1.534400 9,200 26 269 -960
2021-11-23 15:00:05 GMT 48.612640 1.534400 9,200 26 270 -960
2021-11-23 15:00:00 GMT 48.606960 1.530135 9,275 26 270 -1024
2021-11-23 14:59:57 GMT 48.603424 1.527381 9,350 26 271 -1152
2021-11-23 14:59:53 GMT 48.598846 1.523860 9,425 26 271 -1216
2021-11-23 14:59:50 GMT 48.595917 1.521677 9,475 26 271 -1216
2021-11-23 14:59:47 GMT 48.592667 1.519212 9,525 27 272 -1152
2021-11-23 14:59:43 GMT 48.587677 1.515198 9,625 32 271 -1216
2021-11-23 14:59:40 GMT 48.584896 1.512644 9,700 36 270 -1216
2021-11-23 14:59:37 GMT 48.581406 1.509000 9,750 40 268 -1216
2021-11-23 14:59:30 GMT 48.575317 1.500831 9,875 47 266 -1280
2021-11-23 14:59:27 GMT 48.573120 1.497310 10,075 52 264 -1408
2021-11-23 14:59:21 GMT 48.568314 1.487521 10,100 60 262 -1536
2021-11-23 14:59:18 GMT 48.564102 1.476041 10,325 62 261 -1408
2021-11-23 14:59:15 GMT 48.563232 1.473436 10,325 62 261 -1408
2021-11-23 14:59:12 GMT 48.563232 1.473436 10,300 62 261 -1344
2021-11-23 14:59:08 GMT 48.560944 1.466816 10,425 62 261 -1280
2021-11-23 14:59:04 GMT 48.558792 1.460477 10,475 62 261 -1280
2021-11-23 14:59:00 GMT 48.556732 1.454491 10,625 62 262 -1344
2021-11-23 14:58:56 GMT 48.554401 1.447738 10,725 62 261 -1344
2021-11-23 14:58:53 GMT 48.552521 1.442237 10,725 62 261 -1344
2021-11-23 14:58:50 GMT 48.551144 1.438197 10,925 62 261 -1408
2021-11-23 14:58:45 GMT 48.547977 1.428945 10,900 62 262 -1408
2021-11-23 14:58:42 GMT 48.546387 1.424420 10,975 62 262 -1408
2021-11-23 14:58:38 GMT 48.544235 1.418081 11,100 62 261 -1408
2021-11-23 14:58:35 GMT 48.542439 1.412900 11,150 62 261 -1408
2021-11-23 14:58:30 GMT 48.539738 1.405021 11,300 62 261 -1344
2021-11-23 14:58:25 GMT 48.534897 1.391072 11,900 59 250 -128
2021-11-23 14:58:21 GMT 48.534897 1.391072 11,450 62 263 -1152
2021-11-23 14:58:18 GMT 48.532654 1.384629 11,500 62 263 -832
2021-11-23 14:58:12 GMT 48.529449 1.375333 11,575 62 262 -640
2021-11-23 14:58:09 GMT 48.528336 1.372062 11,600 62 261 -768
2021-11-23 14:58:06 GMT 48.526657 1.367234 11,625 63 261 -896
2021-11-23 14:58:03 GMT 48.524654 1.361365 11,725 63 258 -1024
2021-11-23 14:58:00 GMT 48.522537 1.354910 11,775 63 256 -1088
2021-11-23 14:57:56 GMT 48.521072 1.350614 11,825 62 255 -1216
2021-11-23 14:57:50 GMT 48.517208 1.339465 11,975 61 250 -960
2021-11-23 14:57:47 GMT 48.515854 1.335754 12,025 60 249 -64
2021-11-23 14:57:44 GMT 48.514526 1.332092 12,025 60 249 -256
2021-11-23 14:57:41 GMT 48.512600 1.326961 12,025 60 250 0
2021-11-23 14:57:38 GMT 48.510635 1.321881 12,050 59 250 -192
2021-11-23 14:57:35 GMT 48.509216 1.318289 12,050 57 253 -384
2021-11-23 14:57:31 GMT 48.504780 1.307734 12,075 57 255 -448
2021-11-23 14:57:28 GMT 48.504780 1.307734 12,125 57 257 -448
2021-11-23 14:57:23 GMT 48.501892 1.300940 12,125 57 259 -448
2021-11-23 14:57:20 GMT 48.499332 1.295013 12,150 56 262 -448
2021-11-23 14:57:16 GMT 48.496910 1.289376 12,200 57 264 -384
2021-11-23 14:57:13 GMT 48.495003 1.284894 12,325 56 266 -384
2021-11-23 14:57:09 GMT 48.491978 1.277956 12,225 56 270 -384
2021-11-23 14:57:06 GMT 48.489807 1.272935 12,400 56 283 -384
2021-11-23 14:57:02 GMT 48.487785 1.268415 12,275 56 273 -448
2021-11-23 14:56:59 GMT 48.485275 1.262512 12,300 56 275 -448
2021-11-23 14:56:56 GMT 48.483170 1.257723 12,400 56 283 -384
2021-11-23 14:56:53 GMT 48.480946 1.252586 12,350 56 280 -448
2021-11-23 14:56:50 GMT 48.478958 1.248075 12,375 56 280 -448
2021-11-23 14:56:47 GMT 48.476101 1.241527 12,400 56 283 -384
2021-11-23 14:56:44 GMT 48.474983 1.238925 12,400 56 284 -384
2021-11-23 14:56:40 GMT 48.472424 1.232926 12,425 56 286 -384
2021-11-23 14:56:37 GMT 48.469955 1.227288 12,450 57 288 -384
2021-11-23 14:56:34 GMT 48.467651 1.221877 12,500 57 292 -512
2021-11-23 14:56:31 GMT 48.462742 1.210448 12,525 56 294 -640
2021-11-23 14:56:28 GMT 48.462742 1.210448 12,525 56 294 -640
2021-11-23 14:56:23 GMT 48.459595 1.203285 12,700 56 297 -1280
2021-11-23 14:56:20 GMT 48.457260 1.197932 12,700 56 297 -1344
2021-11-23 14:56:17 GMT 48.455341 1.193390 12,900 56 298 -1408
2021-11-23 14:56:14 GMT 48.453003 1.188073 12,825 56 298 -1344
2021-11-23 14:56:10 GMT 48.450218 1.181609 12,850 57 299 -1344
2021-11-23 14:56:07 GMT 48.447327 1.175044 13,025 57 300 -1344
2021-11-23 14:56:03 GMT 48.444725 1.168887 13,025 57 300 -1408
2021-11-23 14:56:00 GMT 48.439819 1.157508 13,125 56 300 -1408
2021-11-23 14:55:57 GMT 48.439819 1.157508 13,175 56 300 -1408
2021-11-23 14:55:54 GMT 48.437836 1.152986 13,225 56 302 -1408
2021-11-23 14:55:50 GMT 48.434715 1.145758 13,325 56 302 -1408
2021-11-23 14:55:46 GMT 48.431992 1.139409 13,425 56 302 -1344
2021-11-23 14:55:43 GMT 48.428944 1.132387 13,500 56 304 -1408
2021-11-23 14:55:40 GMT 48.427410 1.128845 13,550 57 303 -1408
2021-11-23 14:55:38 GMT 48.425777 1.125159 13,600 56 304 -1408
2021-11-23 14:55:35 GMT 48.423523 1.119831 13,825 56 305 -1408
2021-11-23 14:55:30 GMT 48.419682 1.110920 13,800 56 305 -1408
2021-11-23 14:55:27 GMT 48.416050 1.102608 13,900 56 306 -1408
2021-11-23 14:55:23 GMT 48.414978 1.100078 13,950 56 306 -1408
2021-11-23 14:55:21 GMT 48.411255 1.091550 14,075 56 308 -1408
2021-11-23 14:55:19 GMT 48.408741 1.085767 14,075 56 308 -1408
2021-11-23 14:55:16 GMT 48.408741 1.085767 14,125 56 308 -1408
2021-11-23 14:55:13 GMT 48.403294 1.073263 14,250 56 309 -1408
2021-11-23 14:55:10 GMT 48.403294 1.073263 14,350 56 309 -1408
2021-11-23 14:55:07 GMT 48.401665 1.069505 14,375 56 309 -1408
2021-11-23 14:55:04 GMT 48.399292 1.064084 14,525 56 310 -1408
2021-11-23 14:55:01 GMT 48.397011 1.058880 14,475 56 310 -1408
2021-11-23 14:54:57 GMT 48.393566 1.050929 14,600 56 311 -1408
2021-11-23 14:54:53 GMT 48.390564 1.044053 14,675 56 311 -1408
2021-11-23 14:54:51 GMT 48.388596 1.039476 14,800 56 312 -1408
2021-11-23 14:54:49 GMT 48.387497 1.036940 14,800 56 312 -1472
2021-11-23 14:54:46 GMT 48.385071 1.031306 14,850 56 313 -1472
2021-11-23 14:54:43 GMT 48.383228 1.027149 14,900 56 314 -1408
2021-11-23 14:54:41 GMT 48.380859 1.021658 14,950 56 314 -1408
2021-11-23 14:54:37 GMT 48.378387 1.016024 15,100 56 315 -1408
2021-11-23 14:54:34 GMT 48.375504 1.009441 15,100 56 316 -1408
2021-11-23 14:54:31 GMT 48.372711 1.003008 15,200 56 317 -1408
2021-11-23 14:54:26 GMT 48.368938 0.994407 15,300 56 318 -1408
2021-11-23 14:54:23 GMT 48.366852 0.989615 15,375 56 318 -1472
2021-11-23 14:54:21 GMT 48.364517 0.984288 15,425 56 318 -1472
2021-11-23 14:54:19 GMT 48.363235 0.981304 15,575 56 319 -1472
2021-11-23 14:54:16 GMT 48.360718 0.975600 15,550 56 319 -1472
2021-11-23 14:54:13 GMT 48.358837 0.971278 15,600 56 320 -1472
2021-11-23 14:54:11 GMT 48.356415 0.965740 15,675 56 320 -1472
2021-11-23 14:54:06 GMT 48.352249 0.956233 15,800 56 321 -1408
2021-11-23 14:54:03 GMT 48.350647 0.952571 15,850 56 322 -1408
2021-11-23 14:54:00 GMT 48.347992 0.946374 15,925 56 322 -1408
2021-11-23 14:53:58 GMT 48.346756 0.943557 15,950 56 322 -1472
2021-11-23 14:53:54 GMT 48.343334 0.935717 16,050 56 323 -1472
2021-11-23 14:53:51 GMT 48.340256 0.928556 16,150 56 324 -1472
2021-11-23 14:53:48 GMT 48.338516 0.924612 16,250 56 325 -1472
2021-11-23 14:53:44 GMT 48.334488 0.915316 16,425 56 327 -1472
2021-11-23 14:53:41 GMT 48.332024 0.909697 16,400 56 326 -1472
2021-11-23 14:53:37 GMT 48.329453 0.903837 16,475 56 327 -1472
2021-11-23 14:53:34 GMT 48.323639 0.890526 16,600 56 328 -1408
2021-11-23 14:53:31 GMT 48.323639 0.890526 16,650 56 328 -1408
2021-11-23 14:53:27 GMT 48.320755 0.883836 16,775 56 330 -1472
2021-11-23 14:53:24 GMT 48.318329 0.878272 16,900 56 330 -1536
2021-11-23 14:53:21 GMT 48.315399 0.871582 16,900 56 330 -1536
2021-11-23 14:53:14 GMT 48.310425 0.860042 17,075 56 333 -1536
2021-11-23 14:53:11 GMT 48.306885 0.851933 17,875 56 332 -1536
2021-11-23 14:53:08 GMT 48.305210 0.848116 17,225 56 333 -1536
2021-11-23 14:53:05 GMT 48.302902 0.842919 17,400 56 334 -1536
2021-11-23 14:53:02 GMT 48.299927 0.836158 17,350 56 336 -1472
2021-11-23 14:53:00 GMT 48.298225 0.832287 17,425 56 335 -1536
2021-11-23 14:52:58 GMT 48.296265 0.827848 17,475 56 336 -1536
2021-11-23 14:52:53 GMT 48.292221 0.818698 17,625 56 336 -1472
2021-11-23 14:52:50 GMT 48.289379 0.812338 17,650 56 336 -1472
2021-11-23 14:52:47 GMT 48.287430 0.807847 17,725 56 338 -1472
2021-11-23 14:52:43 GMT 48.280769 0.792750 18,050 56 340 -1600
2021-11-23 14:52:40 GMT 48.280769 0.792750 17,975 56 340 -1600
2021-11-23 14:52:35 GMT 48.276344 0.782704 18,075 56 341 -1536
2021-11-23 14:52:32 GMT 48.273834 0.776994 18,125 56 341 -1472
2021-11-23 14:52:30 GMT 48.272018 0.772874 18,175 56 341 -1472
2021-11-23 14:52:27 GMT 48.269989 0.768339 18,225 56 342 -1536
2021-11-23 14:52:23 GMT 48.265961 0.759254 18,375 56 343 -1472
2021-11-23 14:52:20 GMT 48.263592 0.753864 18,425 56 343 -1472
2021-11-23 14:52:17 GMT 48.260971 0.747915 18,475 56 343 -1408
2021-11-23 14:52:14 GMT 48.258331 0.742011 18,550 56 343 -1472
2021-11-23 14:52:11 GMT 48.255707 0.736084 18,625 56 343 -1472
2021-11-23 14:52:09 GMT 48.254421 0.733048 18,650 56 343 -1472
2021-11-23 14:52:06 GMT 48.251587 0.726717 18,750 56 342 -1472
2021-11-23 14:52:04 GMT 48.249298 0.721556 18,875 56 342 -1536
2021-11-23 14:52:00 GMT 48.246181 0.714473 19,425 56 331 -1536
2021-11-23 14:51:57 GMT 48.243301 0.707914 19,000 56 340 -1600
2021-11-23 14:51:53 GMT 48.239849 0.700089 19,075 56 337 -1536
2021-11-23 14:51:50 GMT 48.236732 0.692861 19,200 57 334 -1472
2021-11-23 14:51:45 GMT 48.232498 0.683124 19,475 56 329 -1600
2021-11-23 14:51:42 GMT 48.230354 0.678189 19,475 56 329 -1600
2021-11-23 14:51:39 GMT 48.228241 0.673406 19,475 56 328 -1536
2021-11-23 14:51:37 GMT 48.226212 0.668865 19,525 56 328 -1536
2021-11-23 14:51:33 GMT 48.221375 0.657842 19,675 56 327 -1472
2021-11-23 14:51:30 GMT 48.220230 0.655165 19,725 56 327 -1408
2021-11-23 14:51:27 GMT 48.215969 0.645519 19,825 56 327 -1408
2021-11-23 14:51:22 GMT 48.213821 0.640658 19,875 56 328 -1472
2021-11-23 14:51:19 GMT 48.211361 0.635183 19,950 56 328 -1472
2021-11-23 14:51:16 GMT 48.208878 0.629460 20,025 56 329 -1536
2021-11-23 14:51:13 GMT 48.206680 0.624530 20,225 56 331 -1536
2021-11-23 14:51:10 GMT 48.204071 0.618615 20,250 56 331 -1536
2021-11-23 14:51:07 GMT 48.201279 0.612347 20,250 56 331 -1536
2021-11-23 14:51:04 GMT 48.198669 0.606431 20,325 56 331 -1536
2021-11-23 14:51:01 GMT 48.195812 0.599911 20,425 56 332 -1536
2021-11-23 14:50:58 GMT 48.194088 0.596081 20,475 56 333 -1536
2021-11-23 14:50:56 GMT 48.192322 0.592033 20,675 56 335 -1536
2021-11-23 14:50:52 GMT 48.188828 0.584082 20,675 56 335 -1536
2021-11-23 14:50:49 GMT 48.183609 0.572345 20,800 56 336 -1536
2021-11-23 14:50:46 GMT 48.183609 0.572345 20,775 56 336 -1536
2021-11-23 14:50:44 GMT 48.182236 0.569247 20,825 56 336 -1536
2021-11-23 14:50:42 GMT 48.177891 0.559291 20,925 56 338 -1536
2021-11-23 14:50:39 GMT 48.177891 0.559291 20,975 56 338 -1600
2021-11-23 14:50:36 GMT 48.174862 0.552497 21,050 56 338 -1600
2021-11-23 14:50:33 GMT 48.172852 0.548049 21,275 56 339 -1600
2021-11-23 14:50:31 GMT 48.170197 0.541992 21,200 56 340 -1600
2021-11-23 14:50:28 GMT 48.168484 0.538041 21,350 56 340 -1600
2021-11-23 14:50:25 GMT 48.165939 0.532344 21,325 56 341 -1536
2021-11-23 14:50:22 GMT 48.162460 0.524527 21,425 56 341 -1536
2021-11-23 14:50:18 GMT 48.158894 0.516428 21,525 56 342 -1600
2021-11-23 14:50:15 GMT 48.157032 0.512343 21,575 56 342 -1600
2021-11-23 14:50:11 GMT 48.152939 0.503047 21,675 56 343 -1600
2021-11-23 14:50:08 GMT 48.150375 0.497343 21,775 56 344 -1600
2021-11-23 14:50:05 GMT 48.148178 0.492393 21,825 56 344 -1600
2021-11-23 14:50:02 GMT 48.144978 0.485229 21,950 56 345 -1600
2021-11-23 14:49:58 GMT 48.141815 0.478043 22,175 56 346 -1600
2021-11-23 14:49:55 GMT 48.139435 0.472687 22,125 56 346 -1600
2021-11-23 14:49:50 GMT 48.134640 0.461919 22,250 56 348 -1600
2021-11-23 14:49:46 GMT 48.130875 0.453461 22,375 56 349 -1600
2021-11-23 14:49:43 GMT 48.128815 0.448860 22,425 56 351 -1664
2021-11-23 14:49:41 GMT 48.126308 0.443256 22,500 56 351 -1664
2021-11-23 14:49:39 GMT 48.125336 0.441032 22,550 56 351 -1664
2021-11-23 14:49:36 GMT 48.121559 0.432551 22,650 56 352 -1600
2021-11-23 14:49:32 GMT 48.117920 0.424416 22,775 56 353 -1664
2021-11-23 14:49:30 GMT 48.115677 0.419334 22,825 56 354 -1664
2021-11-23 14:49:26 GMT 48.112701 0.412605 22,925 56 354 -1728
2021-11-23 14:49:23 GMT 48.109970 0.406494 23,025 56 355 -1728
2021-11-23 14:49:21 GMT 48.108337 0.402832 23,075 56 355 -1728
2021-11-23 14:49:18 GMT 48.106243 0.398184 23,150 56 361 -1792
2021-11-23 14:49:15 GMT 48.103317 0.391594 23,300 56 356 -1728
2021-11-23 14:49:13 GMT 48.100754 0.385895 23,300 56 356 -1728
2021-11-23 14:49:11 GMT 48.099060 0.381981 23,375 56 357 -1728
2021-11-23 14:49:08 GMT 48.096588 0.376488 23,500 56 357 -1728
2021-11-23 14:49:05 GMT 48.090546 0.362892 23,625 56 358 -1728
2021-11-23 14:49:02 GMT 48.090546 0.362892 23,625 56 358 -1728
2021-11-23 14:48:58 GMT 48.085251 0.350929 23,800 56 360 -1792
2021-11-23 14:48:55 GMT 48.085251 0.350929 23,800 56 360 -1792
2021-11-23 14:48:53 GMT 48.083294 0.346562 23,950 56 360 -1792
2021-11-23 14:48:51 GMT 48.077591 0.333710 23,975 56 361 -1792
2021-11-23 14:48:48 GMT 48.077591 0.333710 24,050 56 361 -1792
2021-11-23 14:48:45 GMT 48.075520 0.329167 24,125 56 362 -1792
2021-11-23 14:48:43 GMT 48.073845 0.325435 24,175 56 362 -1792
2021-11-23 14:48:40 GMT 48.070862 0.318741 24,375 56 364 -1792
2021-11-23 14:48:37 GMT 48.067886 0.312124 24,350 56 364 -1792
2021-11-23 14:48:34 GMT 48.065094 0.305832 24,450 56 365 -1792
2021-11-23 14:48:30 GMT 48.061649 0.298110 24,600 56 366 -1792
2021-11-23 14:48:27 GMT 48.058716 0.291631 24,600 56 366 -1792
2021-11-23 14:48:24 GMT 48.055595 0.284729 24,700 56 366 -1792
2021-11-23 14:48:22 GMT 48.054756 0.282828 24,775 56 366 -1792
2021-11-23 14:48:20 GMT 48.052895 0.278602 24,825 56 367 -1792
2021-11-23 14:48:18 GMT 48.050148 0.272545 24,950 56 368 -1792
2021-11-23 14:48:15 GMT 48.047031 0.265573 25,025 56 369 -1856
2021-11-23 14:48:13 GMT 48.045593 0.262367 25,075 56 369 -1856
2021-11-23 14:48:11 GMT 48.043724 0.258179 25,150 56 369 -1856
2021-11-23 14:48:09 GMT 48.040977 0.251981 25,250 56 369 -1856
2021-11-23 14:48:06 GMT 48.039001 0.247536 25,350 56 369 -1920
2021-11-23 14:48:03 GMT 48.036255 0.241425 25,425 56 371 -1856
2021-11-23 14:48:00 GMT 48.030270 0.228037 25,800 56 372 -1728
2021-11-23 14:47:57 GMT 48.030270 0.228037 25,800 56 372 -1728
2021-11-23 14:47:54 GMT 48.027420 0.221649 25,650 56 372 -1664
2021-11-23 14:47:51 GMT 48.024994 0.216293 25,725 56 373 -1536
2021-11-23 14:47:49 GMT 48.022247 0.210045 25,800 56 374 -1280
2021-11-23 14:47:45 GMT 48.018402 0.201486 25,850 56 376 -960
2021-11-23 14:47:40 GMT 48.013962 0.191574 25,925 56 377 -1152
2021-11-23 14:47:37 GMT 48.011417 0.185922 26,025 56 378 -1408
2021-11-23 14:47:34 GMT 48.007919 0.178185 26,100 56 378 -1472
2021-11-23 14:47:31 GMT 48.005585 0.172966 26,150 56 378 -1472
2021-11-23 14:47:29 GMT 48.003159 0.167610 26,200 56 378 -1472
2021-11-23 14:47:26 GMT 48.000137 0.160881 26,300 56 378 -1472
2021-11-23 14:47:23 GMT 47.997963 0.156133 26,475 56 378 -1472
2021-11-23 14:47:21 GMT 47.995560 0.150719 26,400 56 378 -1472
2021-11-23 14:47:19 GMT 47.993500 0.146187 26,500 56 378 -1472
2021-11-23 14:47:16 GMT 47.990562 0.139724 26,525 56 379 -1472
2021-11-23 14:47:13 GMT 47.986267 0.130188 26,575 56 379 -1472
2021-11-23 14:47:10 GMT 47.985489 0.128471 26,650 56 379 -1472
2021-11-23 14:47:07 GMT 47.981689 0.120026 26,825 56 379 -1536
2021-11-23 14:47:04 GMT 47.977478 0.110687 26,850 56 379 -1536
2021-11-23 14:47:02 GMT 47.977478 0.110687 26,875 56 379 -1536
2021-11-23 14:46:59 GMT 47.974640 0.104370 26,950 56 379 -1472
2021-11-23 14:46:56 GMT 47.970638 0.095497 27,050 56 379 -1408
2021-11-23 14:46:53 GMT 47.968311 0.090285 27,075 56 380 -1408
2021-11-23 14:46:50 GMT 47.964798 0.082466 27,350 56 380 -1472
2021-11-23 14:46:47 GMT 47.962326 0.077042 27,250 56 381 -1536
2021-11-23 14:46:44 GMT 47.959305 0.070312 27,300 56 381 -1536
2021-11-23 14:46:42 GMT 47.955368 0.061552 27,375 56 381 -1536
2021-11-23 14:46:40 GMT 47.955368 0.061552 27,425 56 381 -1536
2021-11-23 14:46:36 GMT 47.951431 0.052872 27,525 56 381 -1536
2021-11-23 14:46:34 GMT 47.949738 0.049157 27,600 56 381 -1472
2021-11-23 14:46:32 GMT 47.945126 0.038945 27,625 56 381 -1472
2021-11-23 14:46:29 GMT 47.945126 0.038945 27,750 55 382 -1408
2021-11-23 14:46:26 GMT 47.942368 0.032822 27,725 56 383 -1408
2021-11-23 14:46:23 GMT 47.938110 0.023415 27,825 56 383 -1408
2021-11-23 14:46:21 GMT 47.936234 0.019295 27,875 56 383 -1408
2021-11-23 14:46:18 GMT 47.930511 0.006620 28,000 56 383 -1472
2021-11-23 14:46:15 GMT 47.930511 0.006620 28,025 56 383 -1472
2021-11-23 14:46:13 GMT 47.929253 0.003733 28,050 56 384 -1536
2021-11-23 14:46:10 GMT 47.925659 -0.004120 28,150 56 384 -1536
2021-11-23 14:46:07 GMT 47.923325 -0.009407 28,200 56 384 -1536
2021-11-23 14:46:04 GMT 47.919662 -0.017465 28,300 56 384 -1472
2021-11-23 14:46:01 GMT 47.916592 -0.024297 28,375 56 385 -1408
2021-11-23 14:45:57 GMT 47.911938 -0.034649 28,475 56 385 -1344
2021-11-23 14:45:54 GMT 47.909729 -0.039482 28,525 56 386 -1344
2021-11-23 14:45:52 GMT 47.904766 -0.050495 28,650 56 386 -1408
2021-11-23 14:45:49 GMT 47.904766 -0.050495 29,000 55 389 -896
2021-11-23 14:45:46 GMT 47.901089 -0.058664 28,750 56 386 -1408
2021-11-23 14:45:42 GMT 47.896992 -0.067679 28,925 56 388 -1280
2021-11-23 14:45:39 GMT 47.894665 -0.072749 28,875 56 388 -1216
2021-11-23 14:45:35 GMT 47.891281 -0.080269 28,950 55 389 -1024
2021-11-23 14:45:32 GMT 47.888660 -0.086060 29,025 56 392 -768
2021-11-23 14:45:28 GMT 47.884331 -0.095637 29,050 55 409 -768
2021-11-23 14:45:25 GMT 47.881165 -0.102539 29,075 56 394 -768
2021-11-23 14:45:23 GMT 47.878651 -0.108173 29,125 55 398 -768
2021-11-23 14:45:19 GMT 47.872101 -0.122566 29,175 55 396 -768
2021-11-23 14:45:16 GMT 47.872101 -0.122566 29,225 56 399 -768
2021-11-23 14:45:13 GMT 47.863770 -0.140968 29,275 55 400 -768
2021-11-23 14:45:08 GMT 47.859741 -0.149826 29,350 55 401 -768
2021-11-23 14:45:04 GMT 47.859741 -0.149826 29,350 56 402 -768
2021-11-23 14:45:02 GMT 47.857773 -0.154152 29,375 55 403 -768
2021-11-23 14:45:00 GMT 47.854630 -0.161062 29,425 55 404 -768
2021-11-23 14:44:58 GMT 47.853287 -0.164040 29,700 55 406 -768
2021-11-23 14:44:55 GMT 47.850037 -0.171181 29,575 55 407 -768
2021-11-23 14:44:52 GMT 47.846855 -0.178105 29,500 55 408 -768
2021-11-23 14:44:48 GMT 47.839966 -0.193222 29,550 55 410 -768
2021-11-23 14:44:45 GMT 47.839966 -0.193222 29,600 55 413 -768
2021-11-23 14:44:42 GMT 47.836258 -0.201393 29,675 55 415 -768
2021-11-23 14:44:39 GMT 47.828751 -0.217873 29,700 55 415 -768
2021-11-23 14:44:36 GMT 47.828751 -0.217873 29,700 55 416 -768
2021-11-23 14:44:32 GMT 47.825859 -0.224234 29,750 55 417 -768
2021-11-23 14:44:30 GMT 47.822617 -0.231331 29,775 55 422 -576
2021-11-23 14:44:28 GMT 47.820461 -0.236136 29,825 55 421 -640
2021-11-23 14:44:25 GMT 47.817307 -0.243004 29,825 56 422 -576
2021-11-23 14:44:22 GMT 47.814560 -0.248978 29,850 55 422 -576
2021-11-23 14:44:18 GMT 47.810406 -0.258179 29,900 55 426 -384
2021-11-23 14:44:15 GMT 47.807426 -0.264658 29,925 55 426 -384
2021-11-23 14:44:12 GMT 47.803482 -0.273354 29,925 55 427 -320
2021-11-23 14:44:08 GMT 47.799179 -0.282829 29,950 55 428 -256
2021-11-23 14:44:05 GMT 47.793087 -0.296208 30,000 55 429 -192
2021-11-23 14:44:02 GMT 47.790756 -0.301300 29,975 55 429 -128
2021-11-23 14:44:00 GMT 47.790756 -0.301300 29,975 55 429 -128
2021-11-23 14:43:55 GMT 47.785267 -0.313251 30,000 55 431 -64
2021-11-23 14:43:52 GMT 47.782059 -0.320320 30,000 55 431 -64
2021-11-23 14:43:50 GMT 47.779266 -0.326431 30,000 55 431 0
2021-11-23 14:43:45 GMT 47.773209 -0.339661 30,000 55 431 0
2021-11-23 14:43:42 GMT 47.769424 -0.347923 30,000 55 431 0
2021-11-23 14:43:37 GMT 47.761478 -0.365295 30,000 55 431 0
2021-11-23 14:43:34 GMT 47.761478 -0.365295 30,000 55 431 0
2021-11-23 14:43:31 GMT 47.758221 -0.372408 30,000 55 431 0
2021-11-23 14:43:28 GMT 47.754181 -0.381226 30,000 55 431 0
2021-11-23 14:43:23 GMT 47.749557 -0.391251 30,000 55 431 0
2021-11-23 14:43:21 GMT 47.747452 -0.395851 30,000 55 431 0
2021-11-23 14:43:19 GMT 47.744862 -0.401494 30,000 55 431 0
2021-11-23 14:43:16 GMT 47.741043 -0.409790 30,000 55 431 0
2021-11-23 14:43:13 GMT 47.738663 -0.414940 30,000 55 431 0
2021-11-23 14:43:11 GMT 47.730286 -0.433205 30,000 55 431 0
2021-11-23 14:43:07 GMT 47.726807 -0.440826 30,000 55 431 0
2021-11-23 14:43:04 GMT 47.726807 -0.440826 30,000 55 431 0
2021-11-23 14:43:00 GMT 47.723557 -0.447899 30,000 55 431 0
2021-11-23 14:42:57 GMT 47.719620 -0.456413 30,000 55 431 0
2021-11-23 14:42:54 GMT 47.713440 -0.469803 30,000 55 431 0
2021-11-23 14:42:51 GMT 47.713440 -0.469803 30,000 55 431 0
2021-11-23 14:42:49 GMT 47.711201 -0.474666 30,000 55 431 0
2021-11-23 14:42:45 GMT 47.707012 -0.483680 30,000 55 430 0
2021-11-23 14:42:42 GMT 47.703415 -0.491501 30,000 55 430 0
2021-11-23 14:42:39 GMT 47.699524 -0.500015 30,000 55 430 0
2021-11-23 14:42:34 GMT 47.694584 -0.510653 30,000 55 430 0
2021-11-23 14:42:31 GMT 47.690506 -0.519447 30,000 55 430 0
2021-11-23 14:42:29 GMT 47.685135 -0.531076 30,000 55 430 0
2021-11-23 14:42:26 GMT 47.681641 -0.538612 30,000 55 429 0
2021-11-23 14:42:23 GMT 47.681641 -0.538612 30,000 55 429 0
2021-11-23 14:42:20 GMT 47.677731 -0.547063 30,000 55 429 0
2021-11-23 14:42:16 GMT 47.673588 -0.556007 30,000 55 429 0
2021-11-23 14:42:13 GMT 47.670982 -0.561641 30,000 55 429 0
2021-11-23 14:42:11 GMT 47.667725 -0.568613 30,000 55 429 0
2021-11-23 14:42:09 GMT 47.662354 -0.580284 30,000 55 429 0
2021-11-23 14:42:06 GMT 47.662354 -0.580284 30,000 55 428 0
2021-11-23 14:42:03 GMT 47.658970 -0.587487 30,000 55 428 0
2021-11-23 14:42:00 GMT 47.656082 -0.593811 30,000 55 429 0
2021-11-23 14:41:56 GMT 47.650635 -0.605690 30,000 56 427 0
2021-11-23 14:41:53 GMT 47.647842 -0.611801 30,000 56 428 0
2021-11-23 14:41:51 GMT 47.645554 -0.616882 30,000 56 428 0
2021-11-23 14:41:49 GMT 47.642670 -0.623199 30,000 56 428 0
2021-11-23 14:41:46 GMT 47.640442 -0.628052 30,000 55 428 0
2021-11-23 14:41:43 GMT 47.636345 -0.637066 30,000 55 429 0
2021-11-23 14:41:40 GMT 47.634155 -0.641876 30,000 55 429 0
2021-11-23 14:41:38 GMT 47.631599 -0.647489 30,000 55 429 0
2021-11-23 14:41:35 GMT 47.628338 -0.654532 30,000 55 429 0
2021-11-23 14:41:32 GMT 47.623962 -0.663969 30,000 55 429 0
2021-11-23 14:41:29 GMT 47.622055 -0.668053 30,000 55 429 0
2021-11-23 14:41:26 GMT 47.614975 -0.683350 30,000 55 429 0
2021-11-23 14:41:23 GMT 47.614975 -0.683350 30,000 55 429 0
2021-11-23 14:41:21 GMT 47.610695 -0.692491 30,000 55 429 0
2021-11-23 14:41:16 GMT 47.607529 -0.699252 30,000 55 429 0
2021-11-23 14:41:13 GMT 47.603027 -0.708961 30,000 55 429 0
2021-11-23 14:41:10 GMT 47.599663 -0.716224 30,000 55 429 0
2021-11-23 14:41:06 GMT 47.595940 -0.724182 30,000 55 429 0
2021-11-23 14:41:03 GMT 47.591797 -0.733126 30,000 55 429 0
2021-11-23 14:41:00 GMT 47.586117 -0.745521 30,000 55 429 0
2021-11-23 14:40:57 GMT 47.586117 -0.745521 30,000 55 429 0
2021-11-23 14:40:54 GMT 47.582207 -0.753972 30,000 55 429 0
2021-11-23 14:40:51 GMT 47.578400 -0.762245 30,000 55 429 0
2021-11-23 14:40:48 GMT 47.574966 -0.769798 30,000 55 429 0
2021-11-23 14:40:45 GMT 47.570847 -0.778793 30,000 55 429 0
2021-11-23 14:40:42 GMT 47.568474 -0.783832 30,000 55 430 0
2021-11-23 14:40:39 GMT 47.565125 -0.791153 30,000 55 429 0
2021-11-23 14:40:36 GMT 47.561771 -0.798410 30,000 56 429 0
2021-11-23 14:40:32 GMT 47.557301 -0.808411 30,000 58 428 0
2021-11-23 14:40:29 GMT 47.554459 -0.815186 30,000 60 428 0
2021-11-23 14:40:27 GMT 47.552879 -0.819186 30,000 60 428 0
2021-11-23 14:40:24 GMT 47.549900 -0.827073 30,000 63 426 0
2021-11-23 14:40:21 GMT 47.547226 -0.834618 30,000 63 426 0
2021-11-23 14:40:18 GMT 47.544777 -0.841863 30,000 65 426 0
2021-11-23 14:40:16 GMT 47.542603 -0.848763 30,000 66 425 0
2021-11-23 14:40:12 GMT 47.538757 -0.862083 30,000 69 425 0
2021-11-23 14:40:09 GMT 47.536537 -0.870807 30,000 71 424 0
2021-11-23 14:40:05 GMT 47.534592 -0.878975 30,000 74 424 0
2021-11-23 14:40:01 GMT 47.532623 -0.888382 30,000 74 424 0
2021-11-23 14:39:58 GMT 47.530674 -0.898977 30,000 76 423 0
2021-11-23 14:39:56 GMT 47.529968 -0.903488 30,000 78 423 -64
2021-11-23 14:39:52 GMT 47.528111 -0.916443 30,000 78 423 -64
2021-11-23 14:39:49 GMT 47.526066 -0.931443 30,000 78 423 0
2021-11-23 14:39:46 GMT 47.526066 -0.931443 30,000 78 423 0
2021-11-23 14:39:42 GMT 47.524296 -0.944472 30,000 78 422 0
2021-11-23 14:39:39 GMT 47.523037 -0.954050 30,000 78 422 0
2021-11-23 14:39:34 GMT 47.521225 -0.967346 30,000 78 422 0
2021-11-23 14:39:31 GMT 47.520477 -0.972713 30,000 78 422 0
2021-11-23 14:39:28 GMT 47.519348 -0.981216 30,000 78 422 0
2021-11-23 14:39:26 GMT 47.518429 -0.987995 30,000 78 422 64
2021-11-23 14:39:22 GMT 47.516510 -1.002090 30,000 78 422 64
2021-11-23 14:39:18 GMT 47.515457 -1.009712 30,000 78 422 0
2021-11-23 14:39:16 GMT 47.514771 -1.015068 30,000 78 421 -64
2021-11-23 14:39:13 GMT 47.513447 -1.024686 30,000 78 422 0
2021-11-23 14:39:10 GMT 47.512192 -1.033982 30,000 78 422 0
2021-11-23 14:39:07 GMT 47.510880 -1.043289 30,000 78 422 0
2021-11-23 14:39:03 GMT 47.508560 -1.060533 30,000 78 421 -128
2021-11-23 14:39:00 GMT 47.508560 -1.060533 30,000 78 421 -128
2021-11-23 14:38:57 GMT 47.505936 -1.079338 30,000 78 420 -128
2021-11-23 14:38:54 GMT 47.505936 -1.079338 30,025 78 420 -128
2021-11-23 14:38:51 GMT 47.504837 -1.087509 30,025 78 420 64
2021-11-23 14:38:48 GMT 47.503765 -1.095112 30,025 78 420 128
2021-11-23 14:38:45 GMT 47.502594 -1.103577 30,000 78 421 192
2021-11-23 14:38:41 GMT 47.499802 -1.123833 29,975 78 421 320
2021-11-23 14:38:38 GMT 47.499802 -1.123833 29,975 78 421 320
2021-11-23 14:38:35 GMT 47.498795 -1.130836 29,975 78 422 128
2021-11-23 14:38:32 GMT 47.497375 -1.141273 29,975 78 422 -128
2021-11-23 14:38:28 GMT 47.495712 -1.153142 29,975 78 422 -320
2021-11-23 14:38:24 GMT 47.493896 -1.166382 30,000 78 423 -384
2021-11-23 14:38:20 GMT 47.492870 -1.174058 30,025 78 423 -512
2021-11-23 14:38:16 GMT 47.490963 -1.187932 30,050 78 424 -768
2021-11-23 14:38:13 GMT 47.488914 -1.202933 30,150 78 425 -832
2021-11-23 14:38:10 GMT 47.488914 -1.202933 30,250 78 425 -832
2021-11-23 14:38:06 GMT 47.487194 -1.215679 30,200 78 425 -832
2021-11-23 14:38:03 GMT 47.486214 -1.222792 30,250 78 427 -704
2021-11-23 14:38:00 GMT 47.484913 -1.232229 30,400 78 427 -704
2021-11-23 14:37:57 GMT 47.484165 -1.237934 30,300 78 426 -704
2021-11-23 14:37:55 GMT 47.483139 -1.245300 30,325 78 427 -704
2021-11-23 14:37:50 GMT 47.480988 -1.261024 30,400 78 428 -768
2021-11-23 14:37:47 GMT 47.480164 -1.266998 30,425 78 428 -832
2021-11-23 14:37:45 GMT 47.479156 -1.274139 30,450 78 428 -832
2021-11-23 14:37:42 GMT 47.477966 -1.282791 30,525 78 429 -768
2021-11-23 14:37:38 GMT 47.475182 -1.302514 30,550 78 429 -768
2021-11-23 14:37:35 GMT 47.475182 -1.302514 30,575 78 429 -704
2021-11-23 14:37:32 GMT 47.473881 -1.312021 30,625 78 430 -704
2021-11-23 14:37:27 GMT 47.472111 -1.324979 30,675 78 431 -768
2021-11-23 14:37:25 GMT 47.471375 -1.330170 30,725 78 431 -832
2021-11-23 14:37:22 GMT 47.469921 -1.340543 30,750 78 431 -832
2021-11-23 14:37:17 GMT 47.467968 -1.354628 30,825 78 432 -832
2021-11-23 14:37:15 GMT 47.467209 -1.360382 30,850 78 432 -896
2021-11-23 14:37:11 GMT 47.465652 -1.371712 30,900 78 432 -1024
2021-11-23 14:37:07 GMT 47.464005 -1.383522 30,975 78 432 -1024
2021-11-23 14:37:03 GMT 47.462448 -1.394783 31,050 78 433 -1088
2021-11-23 14:37:00 GMT 47.460796 -1.406320 31,125 78 433 -960
2021-11-23 14:36:57 GMT 47.459976 -1.412155 31,150 78 434 -896
2021-11-23 14:36:54 GMT 47.459015 -1.419090 31,300 78 434 -832
2021-11-23 14:36:50 GMT 47.457447 -1.430054 31,250 78 434 -832
2021-11-23 14:36:47 GMT 47.455818 -1.441674 31,300 78 435 -832
2021-11-23 14:36:44 GMT 47.454418 -1.451533 31,350 78 435 -832
2021-11-23 14:36:41 GMT 47.453674 -1.457027 31,375 78 436 -832
2021-11-23 14:36:37 GMT 47.451599 -1.471550 31,450 78 436 -768
2021-11-23 14:36:34 GMT 47.450275 -1.480830 31,525 78 437 -768
2021-11-23 14:36:29 GMT 47.448368 -1.494211 31,550 78 437 -768
2021-11-23 14:36:26 GMT 47.447437 -1.500620 31,575 78 437 -768
2021-11-23 14:36:22 GMT 47.445854 -1.512029 31,675 78 438 -832
2021-11-23 14:36:19 GMT 47.444092 -1.524628 31,700 78 439 -896
2021-11-23 14:36:16 GMT 47.443295 -1.530128 31,700 78 439 -896
2021-11-23 14:36:14 GMT 47.442215 -1.537743 34,000 78 439 0
2021-11-23 14:36:11 GMT 47.440979 -1.546532 31,800 78 439 -960
2021-11-23 14:36:07 GMT 47.437592 -1.570290 31,900 78 440 -1024
2021-11-23 14:36:03 GMT 47.437592 -1.570290 34,000 78 440 -960
2021-11-23 14:36:00 GMT 47.436401 -1.578804 31,975 78 440 -960
2021-11-23 14:35:56 GMT 47.434753 -1.590202 32,050 78 440 -896
2021-11-23 14:35:54 GMT 47.433750 -1.597525 32,075 78 440 -896
2021-11-23 14:35:51 GMT 47.432449 -1.606680 32,125 78 440 -896
2021-11-23 14:35:46 GMT 47.430771 -1.618423 32,175 78 441 -1024
2021-11-23 14:35:44 GMT 47.429703 -1.626047 32,225 78 441 -1088
2021-11-23 14:35:41 GMT 47.428711 -1.633118 32,275 78 441 -1152
2021-11-23 14:35:39 GMT 47.427513 -1.641611 32,425 78 440 -1216
2021-11-23 14:35:36 GMT 47.426605 -1.648087 32,375 78 440 -1216
2021-11-23 14:35:34 GMT 47.425323 -1.656893 32,450 78 440 -1216
2021-11-23 14:35:30 GMT 47.424114 -1.665696 32,500 78 440 -1280
2021-11-23 14:35:26 GMT 47.422211 -1.678917 32,600 78 440 -1280
2021-11-23 14:35:23 GMT 47.421112 -1.686539 32,725 78 439 -1280
2021-11-23 14:35:20 GMT 47.419876 -1.695275 32,725 78 439 -1280
2021-11-23 14:35:18 GMT 47.418640 -1.704117 32,825 78 439 -1280
2021-11-23 14:35:15 GMT 47.417862 -1.709335 32,825 78 439 -1280
2021-11-23 14:35:12 GMT 47.416618 -1.718163 32,875 78 439 -1152
2021-11-23 14:35:09 GMT 47.415527 -1.725746 32,925 78 439 -1152
2021-11-23 14:35:06 GMT 47.413872 -1.737460 33,050 78 439 -960
2021-11-23 14:35:01 GMT 47.412094 -1.749710 33,075 78 439 -960
2021-11-23 14:34:59 GMT 47.411224 -1.755890 33,100 78 439 -960
2021-11-23 14:34:55 GMT 47.409546 -1.767602 33,150 78 439 -1024
2021-11-23 14:34:52 GMT 47.407913 -1.779010 33,250 78 439 -1216
2021-11-23 14:34:48 GMT 47.405960 -1.792763 33,325 78 439 -1344
2021-11-23 14:34:45 GMT 47.405399 -1.796546 33,350 77 438 -1408
2021-11-23 14:34:41 GMT 47.403351 -1.810843 33,500 77 438 -1344
2021-11-23 14:34:38 GMT 47.402161 -1.818993 33,600 77 437 -1344
2021-11-23 14:34:34 GMT 47.400742 -1.828606 33,600 77 437 -1344
2021-11-23 14:34:30 GMT 47.398651 -1.843168 33,725 77 437 -1280
2021-11-23 14:34:24 GMT 47.396805 -1.856003 33,825 77 437 -960
2021-11-23 14:34:21 GMT 47.394974 -1.868774 33,900 77 437 -896
2021-11-23 14:34:18 GMT 47.393646 -1.877838 33,950 77 437 -576
2021-11-23 14:34:14 GMT 47.392365 -1.886831 33,950 78 438 -448
2021-11-23 14:34:10 GMT 47.390320 -1.900846 33,975 78 438 -128
2021-11-23 14:34:06 GMT 47.388920 -1.910494 34,000 78 439 -64
2021-11-23 14:34:03 GMT 47.387833 -1.918076 34,000 78 439 -64
2021-11-23 14:34:01 GMT 47.386780 -1.925354 34,000 78 439 0
2021-11-23 14:33:58 GMT 47.385590 -1.933525 34,000 78 439 0
2021-11-23 14:33:55 GMT 47.383987 -1.944651 34,000 78 439 0
2021-11-23 14:33:52 GMT 47.382889 -1.952271 34,000 77 439 0
2021-11-23 14:33:49 GMT 47.381939 -1.958947 34,000 77 439 0
2021-11-23 14:33:47 GMT 47.380829 -1.966553 34,000 77 438 0
2021-11-23 14:33:44 GMT 47.378036 -1.985847 34,000 77 438 0
2021-11-23 14:33:41 GMT 47.376492 -1.996343 34,000 77 438 0
2021-11-23 14:33:37 GMT 47.376492 -1.996343 34,000 77 438 0
2021-11-23 14:33:34 GMT 47.375469 -2.003667 34,000 77 439 0
2021-11-23 14:33:31 GMT 47.372814 -2.021766 34,000 77 439 0
2021-11-23 14:33:28 GMT 47.372814 -2.021766 34,000 77 439 0
2021-11-23 14:33:25 GMT 47.370998 -2.034302 34,000 77 438 -64
2021-11-23 14:33:20 GMT 47.369202 -2.046547 34,000 77 438 -64
2021-11-23 14:33:18 GMT 47.368298 -2.052964 34,000 77 438 -64
2021-11-23 14:33:14 GMT 47.366684 -2.064056 34,000 77 438 0
2021-11-23 14:33:10 GMT 47.365131 -2.074585 34,000 77 437 0
2021-11-23 14:33:07 GMT 47.364075 -2.081841 34,000 77 437 0
2021-11-23 14:33:04 GMT 47.362804 -2.090571 34,000 77 437 0
2021-11-23 14:33:01 GMT 47.361237 -2.101067 34,000 77 437 0
2021-11-23 14:32:58 GMT 47.358307 -2.121117 34,000 77 437 0
2021-11-23 14:32:54 GMT 47.358307 -2.121117 34,000 77 437 0
2021-11-23 14:32:51 GMT 47.355541 -2.139728 34,000 77 436 0
2021-11-23 14:32:48 GMT 47.355541 -2.139728 34,000 77 436 0
2021-11-23 14:32:44 GMT 47.353958 -2.150436 34,000 77 436 0
2021-11-23 14:32:41 GMT 47.352612 -2.159729 34,000 77 436 0
2021-11-23 14:32:38 GMT 47.351578 -2.166710 34,000 77 436 0
2021-11-23 14:32:34 GMT 47.349426 -2.181473 34,000 77 436 0
2021-11-23 14:32:31 GMT 47.346863 -2.198914 34,000 77 437 0
2021-11-23 14:32:27 GMT 47.346863 -2.198914 34,000 77 437 0
2021-11-23 14:32:24 GMT 47.345352 -2.209076 34,000 77 437 0
2021-11-23 14:32:21 GMT 47.344299 -2.216286 34,000 77 437 0
2021-11-23 14:32:18 GMT 47.342789 -2.226448 34,000 77 437 0
2021-11-23 14:32:15 GMT 47.341251 -2.236915 34,000 77 437 0
2021-11-23 14:32:11 GMT 47.339951 -2.245605 34,000 77 437 0
2021-11-23 14:32:08 GMT 47.338257 -2.256935 34,000 77 437 0
2021-11-23 14:32:02 GMT 47.335968 -2.272316 34,000 77 437 0
2021-11-23 14:32:00 GMT 47.335007 -2.278976 34,000 77 437 0
2021-11-23 14:31:57 GMT 47.333908 -2.286255 34,000 77 437 0
2021-11-23 14:31:52 GMT 47.331757 -2.301086 34,000 77 437 0
2021-11-23 14:31:48 GMT 47.329651 -2.315025 34,000 77 437 0
2021-11-23 14:31:43 GMT 47.327728 -2.328072 34,000 77 437 0
2021-11-23 14:31:41 GMT 47.326866 -2.333890 34,000 77 437 0
2021-11-23 14:31:37 GMT 47.325283 -2.344666 34,000 77 437 0
2021-11-23 14:31:32 GMT 47.323284 -2.358258 34,000 77 437 0
2021-11-23 14:31:30 GMT 47.321980 -2.366990 34,000 77 437 0
2021-11-23 14:31:26 GMT 47.320679 -2.375656 34,000 77 437 0
2021-11-23 14:31:23 GMT 47.319092 -2.386076 34,000 77 437 64
2021-11-23 14:31:20 GMT 47.317703 -2.395363 34,000 77 437 64
2021-11-23 14:31:17 GMT 47.316158 -2.405795 34,000 77 437 0
2021-11-23 14:31:14 GMT 47.315090 -2.413048 34,000 77 437 0
2021-11-23 14:31:11 GMT 47.313644 -2.422626 34,000 77 437 0
2021-11-23 14:31:08 GMT 47.312622 -2.429283 34,000 77 437 0
2021-11-23 14:31:04 GMT 47.310760 -2.441782 34,000 77 437 0
2021-11-23 14:31:00 GMT 47.308620 -2.456008 34,000 77 437 -64
2021-11-23 14:30:57 GMT 47.307770 -2.461487 34,000 77 437 0
2021-11-23 14:30:53 GMT 47.305344 -2.477760 34,000 77 437 0
2021-11-23 14:30:48 GMT 47.304008 -2.486431 34,000 77 437 0
2021-11-23 14:30:45 GMT 47.302753 -2.494882 34,000 77 437 0
2021-11-23 14:30:42 GMT 47.301361 -2.504128 34,000 77 437 0
2021-11-23 14:30:39 GMT 47.299541 -2.516292 34,000 77 437 0
2021-11-23 14:30:35 GMT 47.298386 -2.523834 34,000 77 437 0
2021-11-23 14:30:32 GMT 47.297058 -2.532829 34,000 77 437 0
2021-11-23 14:30:29 GMT 47.295303 -2.544462 34,000 77 438 0
2021-11-23 14:30:26 GMT 47.293900 -2.553772 34,000 77 438 0
2021-11-23 14:30:22 GMT 47.292606 -2.562138 34,000 77 438 0
2021-11-23 14:30:18 GMT 47.290836 -2.573759 34,000 77 438 0
2021-11-23 14:30:14 GMT 47.289299 -2.583970 34,000 77 438 0
2021-11-23 14:30:10 GMT 47.287346 -2.596999 34,000 77 438 0
2021-11-23 14:30:08 GMT 47.286552 -2.602210 34,000 77 437 0
2021-11-23 14:30:04 GMT 47.284878 -2.613549 34,000 77 437 0
2021-11-23 14:30:01 GMT 47.283482 -2.622563 34,000 77 437 0
2021-11-23 14:29:58 GMT 47.281990 -2.632705 34,000 77 436 0
2021-11-23 14:29:52 GMT 47.279476 -2.649184 34,000 77 436 64
2021-11-23 14:29:50 GMT 47.278336 -2.656700 34,000 77 436 64
2021-11-23 14:29:47 GMT 47.277473 -2.662494 34,000 77 436 64
2021-11-23 14:29:42 GMT 47.274719 -2.680389 34,000 77 436 0
2021-11-23 14:29:38 GMT 47.272980 -2.691650 34,000 77 436 0
2021-11-23 14:29:34 GMT 47.271515 -2.701228 34,000 77 437 0
2021-11-23 14:29:31 GMT 47.270306 -2.709327 34,000 77 437 0
2021-11-23 14:29:27 GMT 47.268539 -2.720901 34,000 77 437 0
2021-11-23 14:29:24 GMT 47.266983 -2.731064 34,000 77 437 -64
2021-11-23 14:29:21 GMT 47.266022 -2.737427 34,000 77 437 0
2021-11-23 14:29:19 GMT 47.264858 -2.744962 34,000 77 437 0
2021-11-23 14:29:16 GMT 47.263603 -2.753343 34,000 77 437 0
2021-11-23 14:29:11 GMT 47.261398 -2.767868 34,000 77 436 0
2021-11-23 14:29:07 GMT 47.258102 -2.789223 34,000 77 436 0
2021-11-23 14:29:04 GMT 47.258102 -2.789223 34,000 77 436 0
2021-11-23 14:29:01 GMT 47.256851 -2.797359 34,000 77 435 0
2021-11-23 14:28:57 GMT 47.255131 -2.808556 34,000 77 435 0
2021-11-23 14:28:54 GMT 47.253479 -2.819572 34,000 77 434 0
2021-11-23 14:28:51 GMT 47.252384 -2.826444 34,000 77 434 0
2021-11-23 14:28:46 GMT 47.248287 -2.852924 34,000 77 434 0
2021-11-23 14:28:42 GMT 47.248287 -2.852924 34,000 77 433 0
2021-11-23 14:28:39 GMT 47.246979 -2.861526 34,000 77 433 0
2021-11-23 14:28:34 GMT 47.244797 -2.875319 34,000 77 434 0
2021-11-23 14:28:31 GMT 47.243454 -2.883911 34,000 77 434 0
2021-11-23 14:28:28 GMT 47.242401 -2.890846 34,000 77 434 0
2021-11-23 14:28:25 GMT 47.241211 -2.898605 34,000 77 434 0
2021-11-23 14:28:20 GMT 47.238876 -2.913506 34,000 77 434 0
2021-11-23 14:28:16 GMT 47.236542 -2.928749 34,000 77 434 0
2021-11-23 14:28:11 GMT 47.234573 -2.941452 34,000 77 435 0
2021-11-23 14:28:08 GMT 47.233200 -2.950378 34,000 77 435 64
2021-11-23 14:28:03 GMT 47.231140 -2.963905 34,000 77 436 0
2021-11-23 14:28:00 GMT 47.229851 -2.972295 34,000 77 436 0
2021-11-23 14:27:58 GMT 47.229015 -2.977788 34,000 77 435 0
2021-11-23 14:27:55 GMT 47.227619 -2.986732 34,000 77 436 0
2021-11-23 14:27:52 GMT 47.225803 -2.998563 34,000 77 436 0
2021-11-23 14:27:48 GMT 47.224407 -3.007507 34,000 77 436 0
2021-11-23 14:27:44 GMT 47.222717 -3.018425 34,000 77 436 0
2021-11-23 14:27:41 GMT 47.221191 -3.028283 34,000 77 436 0
2021-11-23 14:27:38 GMT 47.219891 -3.036663 34,000 77 436 0
2021-11-23 14:27:34 GMT 47.218094 -3.048225 34,000 77 436 0
2021-11-23 14:27:30 GMT 47.216583 -3.058002 34,000 77 436 0
2021-11-23 14:27:28 GMT 47.215393 -3.065529 34,000 77 436 0
2021-11-23 14:27:23 GMT 47.213470 -3.077957 34,000 77 436 0
2021-11-23 14:27:20 GMT 47.212097 -3.086884 34,000 77 436 0
2021-11-23 14:27:18 GMT 47.210903 -3.094412 34,000 77 437 0
2021-11-23 14:27:13 GMT 47.208717 -3.108567 34,000 77 438 0
2021-11-23 14:27:10 GMT 47.207413 -3.117018 34,000 77 438 0
2021-11-23 14:27:07 GMT 47.206238 -3.124512 34,000 77 438 0
2021-11-23 14:27:03 GMT 47.204407 -3.136391 34,000 77 438 0
2021-11-23 14:27:00 GMT 47.202759 -3.146808 34,000 77 438 0
2021-11-23 14:26:57 GMT 47.201641 -3.153992 34,000 77 438 0
2021-11-23 14:26:53 GMT 47.198135 -3.176285 34,000 77 438 0
2021-11-23 14:26:50 GMT 47.198135 -3.176285 34,000 77 438 0
2021-11-23 14:26:48 GMT 47.197083 -3.183220 34,000 77 438 0
2021-11-23 14:26:43 GMT 47.195263 -3.194838 34,000 77 438 0
2021-11-23 14:26:39 GMT 47.193542 -3.205825 34,000 77 438 0
2021-11-23 14:26:37 GMT 47.192551 -3.211853 34,000 77 438 0
2021-11-23 14:26:33 GMT 47.190655 -3.223994 34,000 77 438 0
2021-11-23 14:26:29 GMT 47.189026 -3.234444 34,000 77 438 0
2021-11-23 14:26:27 GMT 47.188049 -3.240826 34,000 76 438 0
2021-11-23 14:26:23 GMT 47.186050 -3.253532 34,000 76 438 0
2021-11-23 14:26:19 GMT 47.184650 -3.262235 34,000 76 438 0
2021-11-23 14:26:17 GMT 47.183167 -3.271797 34,000 76 438 0
2021-11-23 14:26:12 GMT 47.181335 -3.283058 34,000 76 439 0
2021-11-23 14:26:09 GMT 47.179733 -3.293221 34,000 76 439 0
2021-11-23 14:26:07 GMT 47.178783 -3.299279 34,000 76 439 0
2021-11-23 14:26:02 GMT 47.176365 -3.314350 34,000 76 439 0
2021-11-23 14:25:59 GMT 47.174881 -3.323639 34,000 76 439 0
2021-11-23 14:25:56 GMT 47.173851 -3.330336 34,000 76 439 0
2021-11-23 14:25:53 GMT 47.172272 -3.340187 34,000 76 439 0
2021-11-23 14:25:50 GMT 47.170944 -3.348633 34,000 76 440 0
2021-11-23 14:25:48 GMT 47.170078 -3.354140 34,000 76 440 0
2021-11-23 14:25:46 GMT 47.169193 -3.359633 34,000 76 440 0
2021-11-23 14:25:42 GMT 47.167286 -3.371535 34,000 76 440 0
2021-11-23 14:25:39 GMT 47.165890 -3.380550 34,000 76 440 0
2021-11-23 14:25:36 GMT 47.164635 -3.388367 34,000 76 440 0
2021-11-23 14:25:32 GMT 47.162796 -3.399719 34,000 76 440 0
2021-11-23 14:25:28 GMT 47.160816 -3.412170 34,000 76 440 0
2021-11-23 14:25:23 GMT 47.158218 -3.428490 34,000 76 440 0
2021-11-23 14:25:17 GMT 47.155415 -3.446186 34,000 76 440 0
2021-11-23 14:25:12 GMT 47.153507 -3.458088 34,000 76 440 0
2021-11-23 14:25:07 GMT 47.151260 -3.472092 34,000 76 440 0
2021-11-23 14:25:02 GMT 47.148758 -3.487737 34,000 76 440 0
2021-11-23 14:24:56 GMT 47.145905 -3.505463 34,000 76 440 0
2021-11-23 14:24:52 GMT 47.143963 -3.517667 34,000 76 440 0
2021-11-23 14:24:49 GMT 47.141785 -3.531349 34,000 76 440 0
2021-11-23 14:24:45 GMT 47.140961 -3.536568 34,000 76 440 0
2021-11-23 14:24:41 GMT 47.139168 -3.547598 34,000 76 439 0
2021-11-23 14:24:36 GMT 47.136562 -3.563796 34,000 76 439 0
2021-11-23 14:24:32 GMT 47.134506 -3.576530 34,000 76 439 0
2021-11-23 14:24:26 GMT 47.131767 -3.593656 34,000 76 439 0
2021-11-23 14:24:21 GMT 47.129719 -3.606685 34,000 76 439 0
2021-11-23 14:24:16 GMT 47.127274 -3.621712 34,000 76 438 0
2021-11-23 14:24:10 GMT 47.124828 -3.637038 34,000 76 438 0
2021-11-23 14:24:05 GMT 47.122055 -3.654121 34,000 76 439 0
2021-11-23 14:24:01 GMT 47.120132 -3.666000 34,000 76 439 0
2021-11-23 14:23:55 GMT 47.117569 -3.681862 34,000 76 439 0
2021-11-23 14:23:49 GMT 47.114914 -3.698135 34,000 76 439 0
2021-11-23 14:23:46 GMT 47.113377 -3.707674 34,000 76 439 0
2021-11-23 14:23:40 GMT 47.110306 -3.726760 34,000 76 439 0
2021-11-23 14:23:36 GMT 47.108631 -3.736901 34,000 76 439 0
2021-11-23 14:23:33 GMT 47.107468 -3.744155 34,000 76 439 0
2021-11-23 14:23:30 GMT 47.105885 -3.754014 34,000 76 439 0
2021-11-23 14:23:26 GMT 47.104115 -3.764719 34,000 76 439 0
2021-11-23 14:23:23 GMT 47.102577 -3.774297 34,000 76 439 0
2021-11-23 14:23:19 GMT 47.100677 -3.786163 34,000 76 439 0
2021-11-23 14:23:15 GMT 47.098763 -3.797748 34,000 76 439 0
2021-11-23 14:23:13 GMT 47.098015 -3.802326 34,000 76 439 0
2021-11-23 14:23:09 GMT 47.095875 -3.815636 34,000 76 439 0
2021-11-23 14:23:06 GMT 47.094013 -3.826904 34,000 76 439 0
2021-11-23 14:23:03 GMT 47.092941 -3.833595 34,000 76 439 0
2021-11-23 14:23:00 GMT 47.091267 -3.843665 34,000 76 439 64
2021-11-23 14:22:55 GMT 47.089371 -3.855240 34,000 76 438 0
2021-11-23 14:22:52 GMT 47.088146 -3.862680 34,000 76 438 0
2021-11-23 14:22:49 GMT 47.086285 -3.873948 34,000 76 438 0
2021-11-23 14:22:43 GMT 47.083923 -3.888336 34,000 76 438 0
2021-11-23 14:22:40 GMT 47.082001 -3.900146 34,000 76 438 0
2021-11-23 14:22:35 GMT 47.079895 -3.913124 34,000 76 437 0
2021-11-23 14:22:32 GMT 47.076881 -3.931274 34,000 76 437 0
2021-11-23 14:22:29 GMT 47.076881 -3.931274 34,000 76 437 0
2021-11-23 14:22:24 GMT 47.074509 -3.945923 34,000 76 437 0
2021-11-23 14:22:19 GMT 47.072525 -3.957962 34,000 76 436 0
2021-11-23 14:22:15 GMT 47.070465 -3.970596 34,000 76 436 0
2021-11-23 14:22:11 GMT 47.068596 -3.982051 34,000 76 436 0
2021-11-23 14:22:07 GMT 47.066711 -3.993530 34,000 76 437 0
2021-11-23 14:22:03 GMT 47.064926 -4.004173 34,000 76 436 0
2021-11-23 14:21:58 GMT 47.062031 -4.021630 34,000 76 437 0
2021-11-23 14:21:54 GMT 47.060028 -4.033699 34,000 76 437 0
2021-11-23 14:21:50 GMT 47.058884 -4.040565 34,000 76 437 0
2021-11-23 14:21:47 GMT 47.057236 -4.050659 34,000 76 438 0
2021-11-23 14:21:43 GMT 47.055038 -4.063911 34,000 76 438 0
2021-11-23 14:21:38 GMT 47.052769 -4.077688 34,000 76 438 0
2021-11-23 14:21:32 GMT 47.050159 -4.093252 34,000 76 438 -64
2021-11-23 14:21:28 GMT 47.047832 -4.107337 34,000 76 437 -64
2021-11-23 14:21:22 GMT 47.045425 -4.122002 34,000 76 437 0
2021-11-23 14:21:18 GMT 47.043411 -4.134029 34,000 76 436 0
2021-11-23 14:21:16 GMT 47.042480 -4.139733 34,000 76 436 0
2021-11-23 14:21:13 GMT 47.040665 -4.150635 34,000 76 435 0
2021-11-23 14:21:10 GMT 47.039734 -4.156353 34,000 76 435 0
2021-11-23 14:21:07 GMT 47.038242 -4.165227 34,000 76 435 0
2021-11-23 14:21:02 GMT 47.035683 -4.180368 34,000 76 435 0
2021-11-23 14:20:59 GMT 47.034256 -4.188950 34,000 76 435 0
2021-11-23 14:20:56 GMT 47.032749 -4.198045 34,000 76 435 0
2021-11-23 14:20:52 GMT 47.030914 -4.208931 34,000 76 435 0
2021-11-23 14:20:48 GMT 47.027893 -4.227196 34,000 76 435 0
2021-11-23 14:20:45 GMT 47.027893 -4.227196 34,000 76 435 0
2021-11-23 14:20:42 GMT 47.025925 -4.238937 34,000 76 435 0
2021-11-23 14:20:39 GMT 47.024918 -4.244911 34,000 76 435 0
2021-11-23 14:20:36 GMT 47.023499 -4.253494 34,000 76 435 0
2021-11-23 14:20:30 GMT 47.020508 -4.271569 34,000 76 436 0
2021-11-23 14:20:27 GMT 47.018509 -4.283569 34,000 76 436 0
2021-11-23 14:20:20 GMT 47.015663 -4.300443 34,000 76 436 0
2021-11-23 14:20:16 GMT 47.011414 -4.325935 34,000 76 436 0
2021-11-23 14:20:11 GMT 47.011414 -4.325935 34,000 76 436 0
2021-11-23 14:20:05 GMT 47.008713 -4.342003 34,000 76 436 0
2021-11-23 14:20:01 GMT 47.006447 -4.355164 34,000 76 437 0
2021-11-23 14:19:54 GMT 47.000931 -4.387871 34,000 76 438 0
2021-11-23 14:19:49 GMT 47.000931 -4.387871 34,000 76 437 0
2021-11-23 14:19:45 GMT 46.998962 -4.399612 34,000 76 437 0
2021-11-23 14:19:39 GMT 46.995880 -4.417701 34,000 76 438 0
2021-11-23 14:19:35 GMT 46.994156 -4.428040 34,000 76 438 0
2021-11-23 14:19:29 GMT 46.991043 -4.446442 34,000 76 438 0
2021-11-23 14:19:25 GMT 46.989166 -4.457703 34,000 76 438 0
2021-11-23 14:19:18 GMT 46.985641 -4.478371 34,000 76 438 0
2021-11-23 14:19:15 GMT 46.984039 -4.487846 34,000 76 438 0
2021-11-23 14:19:08 GMT 46.981110 -4.505150 34,000 75 438 0
2021-11-23 14:19:05 GMT 46.979168 -4.516578 34,000 75 438 0
2021-11-23 14:18:59 GMT 46.976608 -4.531790 34,000 75 438 0
2021-11-23 14:18:53 GMT 46.971439 -4.561932 34,000 75 437 -64
2021-11-23 14:18:49 GMT 46.971439 -4.561932 34,000 75 437 -64
2021-11-23 14:18:46 GMT 46.969952 -4.570805 34,000 75 437 -64
2021-11-23 14:18:43 GMT 46.968658 -4.578209 34,000 75 436 0
2021-11-23 14:18:39 GMT 46.966507 -4.590806 34,000 75 436 0
2021-11-23 14:18:36 GMT 46.965042 -4.599426 34,000 75 436 0
2021-11-23 14:18:32 GMT 46.963348 -4.609383 34,000 75 436 0
2021-11-23 14:18:29 GMT 46.961334 -4.621124 34,000 76 434 0
2021-11-23 14:18:25 GMT 46.959663 -4.630808 34,000 76 434 0
2021-11-23 14:18:22 GMT 46.958496 -4.637604 34,000 76 434 0
2021-11-23 14:18:18 GMT 46.956264 -4.650738 34,000 76 434 0
2021-11-23 14:18:14 GMT 46.954357 -4.662147 34,000 76 434 0
2021-11-23 14:18:07 GMT 46.951218 -4.680313 34,000 75 435 0
2021-11-23 14:18:01 GMT 46.948105 -4.698578 34,000 75 435 0
2021-11-23 14:17:56 GMT 46.945652 -4.712783 34,000 75 436 0
2021-11-23 14:17:50 GMT 46.942719 -4.729896 34,000 75 435 0
2021-11-23 14:17:47 GMT 46.941460 -4.737009 34,000 75 436 0
2021-11-23 14:17:41 GMT 46.938538 -4.754128 34,000 75 436 0
2021-11-23 14:17:36 GMT 46.936108 -4.768066 34,000 75 436 0
2021-11-23 14:17:31 GMT 46.933407 -4.783771 34,000 75 436 0
2021-11-23 14:17:24 GMT 46.929291 -4.807755 31,000 75 436 0
2021-11-23 14:17:20 GMT 46.928192 -4.813984 34,000 75 436 0
2021-11-23 14:17:10 GMT 46.923157 -4.843391 34,000 75 436 0
2021-11-23 14:17:05 GMT 46.920593 -4.858223 34,000 75 436 0
2021-11-23 14:17:00 GMT 46.918137 -4.872225 34,000 75 436 0
2021-11-23 14:16:52 GMT 46.913956 -4.896469 34,000 75 436 0
2021-11-23 14:16:48 GMT 46.912365 -4.905536 34,000 75 436 0
2021-11-23 14:16:42 GMT 46.909149 -4.924072 34,000 75 436 0
2021-11-23 14:16:39 GMT 46.907665 -4.932650 34,000 75 436 0
2021-11-23 14:16:32 GMT 46.904114 -4.952843 34,000 75 436 0
2021-11-23 14:16:29 GMT 46.902775 -4.960538 34,000 75 436 0
2021-11-23 14:16:25 GMT 46.900131 -4.975639 34,000 75 435 0
2021-11-23 14:16:18 GMT 46.897236 -4.992159 34,000 75 435 0
2021-11-23 14:16:15 GMT 46.895794 -5.000399 34,000 75 435 0
2021-11-23 14:16:11 GMT 46.893745 -5.012090 34,000 75 435 0
2021-11-23 14:16:08 GMT 46.892254 -5.020329 34,000 75 435 0
2021-11-23 14:16:04 GMT 46.890442 -5.030823 34,000 75 435 0
2021-11-23 14:15:57 GMT 46.886765 -5.051651 34,000 75 435 0
2021-11-23 14:15:54 GMT 46.884979 -5.061882 34,000 75 435 0
2021-11-23 14:15:47 GMT 46.882015 -5.078923 34,000 75 435 0
2021-11-23 14:15:44 GMT 46.880310 -5.088593 34,000 75 435 0
2021-11-23 14:15:37 GMT 46.876831 -5.108505 34,000 75 435 0
2021-11-23 14:15:32 GMT 46.874241 -5.123009 34,000 75 435 0
2021-11-23 14:15:26 GMT 46.871338 -5.139473 34,000 75 435 0
2021-11-23 14:15:16 GMT 46.866234 -5.168518 34,000 75 435 0
2021-11-23 14:15:10 GMT 46.863441 -5.184105 34,000 75 436 0
2021-11-23 14:15:06 GMT 46.861111 -5.197151 34,000 75 436 0
2021-11-23 14:15:03 GMT 46.859894 -5.203969 34,000 75 435 0
2021-11-23 14:14:55 GMT 46.855293 -5.229836 34,000 75 435 0
2021-11-23 14:14:45 GMT 46.850777 -5.255035 34,000 75 435 0
2021-11-23 14:14:41 GMT 46.848637 -5.266983 34,000 75 434 0
2021-11-23 14:14:31 GMT 46.843746 -5.294449 34,000 75 434 0
2021-11-23 14:14:24 GMT 46.839706 -5.317182 34,000 75 435 0
2021-11-23 14:14:14 GMT 46.834946 -5.343844 34,000 75 436 0
2021-11-23 14:14:04 GMT 46.829456 -5.374786 34,000 75 435 0
2021-11-23 14:13:53 GMT 46.824570 -5.402321 34,000 75 435 0
2021-11-23 14:13:42 GMT 46.818935 -5.434113 34,000 75 435 0
2021-11-23 14:13:38 GMT 46.816589 -5.447477 34,000 75 435 0
2021-11-23 14:13:32 GMT 46.811142 -5.478426 34,000 75 435 0
2021-11-23 14:13:22 GMT 46.806427 -5.505691 34,000 75 435 0
2021-11-23 14:13:17 GMT 46.806427 -5.505691 34,000 75 435 0
2021-11-23 14:13:07 GMT 46.800751 -5.537980 34,000 75 435 0
2021-11-23 14:13:02 GMT 46.798691 -5.549904 34,000 75 435 0
2021-11-23 14:12:58 GMT 46.796684 -5.561279 34,000 75 435 0
2021-11-23 14:12:51 GMT 46.793518 -5.579112 34,000 75 435 0
2021-11-23 14:12:48 GMT 46.791843 -5.588745 34,000 75 434 0
2021-11-23 14:12:41 GMT 46.788445 -5.607765 34,000 75 435 0
2021-11-23 14:12:30 GMT 46.782944 -5.637728 34,000 74 435 0
2021-11-23 14:12:17 GMT 46.775967 -5.674713 34,000 74 435 0
2021-11-23 14:12:09 GMT 46.771545 -5.697784 34,000 71 434 0
2021-11-23 14:11:54 GMT 46.760056 -5.737275 34,000 64 433 0
2021-11-23 14:11:46 GMT 46.751266 -5.757841 34,000 55 433 0
2021-11-23 14:11:33 GMT 46.733887 -5.787735 34,000 46 434 64
2021-11-23 14:11:28 GMT 46.726318 -5.797834 34,000 17 443 0
2021-11-23 14:11:20 GMT 46.713959 -5.811567 34,000 32 437 0
2021-11-23 14:11:08 GMT 46.693451 -5.828984 34,000 25 440 0
2021-11-23 14:11:02 GMT 46.682190 -5.836152 34,000 17 443 0
2021-11-23 14:10:57 GMT 46.672211 -5.841444 34,000 17 443 0
2021-11-23 14:07:08 GMT 46.475521 -5.335991 34,000 235 528 0
2021-11-23 14:06:56 GMT 46.494328 -5.300697 34,000 227 526 0
2021-11-23 14:06:46 GMT 46.509735 -5.277214 34,000 222 524 0
2021-11-23 14:06:37 GMT 46.527237 -5.254948 34,000 218 522 0
2021-11-23 14:06:27 GMT 46.546558 -5.234711 34,000 213 520 0
2021-11-23 14:06:16 GMT 46.569790 -5.215210 34,000 207 517 -64
2021-11-23 14:06:06 GMT 46.590923 -5.201477 34,000 201 514 0
2021-11-23 14:05:55 GMT 46.615356 -5.189633 34,000 195 511 0
2021-11-23 14:05:45 GMT 46.638779 -5.182045 34,000 189 507 64
2021-11-23 14:05:35 GMT 46.661957 -5.178044 34,000 183 503 0
2021-11-23 14:05:23 GMT 46.688358 -5.177582 34,000 176 500 0
2021-11-23 14:05:14 GMT 46.709427 -5.180389 34,000 136 470 0
2021-11-23 14:05:12 GMT 46.713730 -5.181290 34,000 136 470 0
2021-11-23 14:05:03 GMT 46.733604 -5.187195 34,000 165 492 64
2021-11-23 14:04:53 GMT 46.755569 -5.197136 34,000 156 485 -64
2021-11-23 14:04:50 GMT 46.761864 -5.200653 34,000 156 485 -64
2021-11-23 14:04:41 GMT 46.779972 -5.212738 34,000 151 482 0
2021-11-23 14:04:31 GMT 46.817093 -5.248316 34,000 136 470 0
2021-11-23 14:04:21 GMT 46.837696 -5.276733 34,000 136 470 0
2021-11-23 14:04:08 GMT 46.837696 -5.276733 34,000 133 467 0
2021-11-23 14:04:00 GMT 46.848495 -5.295410 34,000 126 462 0
2021-11-23 14:03:51 GMT 46.869919 -5.345879 34,000 114 452 0
2021-11-23 14:03:41 GMT 46.869919 -5.345879 34,000 114 452 0
2021-11-23 14:03:30 GMT 46.878384 -5.376188 34,000 106 446 0
2021-11-23 14:03:21 GMT 46.883835 -5.404518 34,000 101 442 0
2021-11-23 14:03:09 GMT 46.887497 -5.439537 34,000 94 440 0
2021-11-23 14:02:58 GMT 46.888020 -5.469712 34,000 87 437 0
2021-11-23 14:02:49 GMT 46.886581 -5.497353 34,000 83 437 0
2021-11-23 14:02:36 GMT 46.883411 -5.533870 34,000 82 437 0
2021-11-23 14:02:30 GMT 46.880264 -5.569519 34,000 82 437 0
2021-11-23 14:02:15 GMT 46.877964 -5.595562 34,000 82 437 0
2021-11-23 14:02:12 GMT 46.877151 -5.604607 34,000 82 437 0
2021-11-23 14:02:07 GMT 46.875824 -5.619507 34,000 82 438 0
2021-11-23 14:01:59 GMT 46.873489 -5.645599 34,000 82 438 0
2021-11-23 14:01:56 GMT 46.873032 -5.650887 34,000 82 438 0
2021-11-23 14:01:46 GMT 46.870422 -5.679932 34,000 82 438 0
2021-11-23 14:01:36 GMT 46.867722 -5.709510 34,000 82 438 0
2021-11-23 14:01:25 GMT 46.864792 -5.742299 34,000 82 438 0
2021-11-23 14:01:10 GMT 46.860764 -5.786847 34,000 82 438 0
2021-11-23 14:01:05 GMT 46.859482 -5.801193 34,000 82 438 0
2021-11-23 14:00:57 GMT 46.857342 -5.824608 34,000 82 438 0
2021-11-23 14:00:47 GMT 46.854782 -5.853035 34,000 82 437 0
2021-11-23 14:00:33 GMT 46.851009 -5.894852 34,000 82 437 0
2021-11-23 14:00:19 GMT 46.847195 -5.936325 34,000 82 437 0
We lost coverage of the aircraft here for a total of 30 minutes
2021-11-23 13:29:54 GMT 47.094944 -5.530630 33,000 268 516 0
2021-11-23 13:29:24 GMT 47.097748 -5.428070 33,000 268 515 0
2021-11-23 13:29:09 GMT 47.099167 -5.375748 33,000 268 515 0
2021-11-23 13:29:06 GMT 47.099487 -5.363594 33,000 268 515 0
2021-11-23 13:29:00 GMT 47.100063 -5.341609 33,000 268 515 0
2021-11-23 13:28:56 GMT 47.100346 -5.330130 33,000 268 515 0
2021-11-23 13:28:48 GMT 47.101089 -5.301865 33,000 268 515 0
2021-11-23 13:28:44 GMT 47.101414 -5.287945 33,000 268 515 0
2021-11-23 13:28:35 GMT 47.102234 -5.255859 33,000 268 515 0
2021-11-23 13:28:21 GMT 47.103470 -5.206352 33,000 268 515 0
2021-11-23 13:28:13 GMT 47.104156 -5.179161 33,000 268 515 0
2021-11-23 13:28:05 GMT 47.105667 -5.114685 33,000 268 515 0
2021-11-23 13:27:54 GMT 47.105667 -5.114685 33,000 268 515 0
2021-11-23 13:27:49 GMT 47.106163 -5.094769 33,000 268 515 0
2021-11-23 13:27:44 GMT 47.106537 -5.077726 33,000 268 515 0
2021-11-23 13:27:32 GMT 47.107544 -5.035240 33,000 268 515 0
2021-11-23 13:27:29 GMT 47.107792 -5.024837 33,000 268 515 0
2021-11-23 13:27:23 GMT 47.108257 -5.004625 33,000 268 515 0
2021-11-23 13:27:20 GMT 47.108597 -4.991364 33,000 269 515 0
2021-11-23 13:27:15 GMT 47.108917 -4.976051 33,000 269 515 0
2021-11-23 13:27:08 GMT 47.109421 -4.953804 33,000 269 514 0
2021-11-23 13:27:02 GMT 47.109879 -4.933617 33,000 269 514 0
2021-11-23 13:26:59 GMT 47.110153 -4.921738 33,000 269 514 0
2021-11-23 13:26:54 GMT 47.110657 -4.899490 33,000 269 514 0
2021-11-23 13:26:51 GMT 47.110771 -4.894268 33,000 269 514 0
2021-11-23 13:26:48 GMT 47.110977 -4.883835 33,000 269 514 0
2021-11-23 13:26:44 GMT 47.111343 -4.867836 33,000 269 514 0
2021-11-23 13:26:38 GMT 47.111748 -4.848703 33,000 269 514 0
2021-11-23 13:26:32 GMT 47.112167 -4.828843 33,000 269 514 0
2021-11-23 13:26:29 GMT 47.112495 -4.813913 33,000 269 514 0
2021-11-23 13:26:23 GMT 47.112900 -4.794777 33,000 269 514 0
2021-11-23 13:26:17 GMT 47.113285 -4.776306 33,000 269 514 0
2021-11-23 13:26:14 GMT 47.113541 -4.763809 33,000 269 514 0
2021-11-23 13:26:08 GMT 47.113983 -4.741868 33,000 269 514 0
2021-11-23 13:26:00 GMT 47.114502 -4.716431 33,000 269 515 0
2021-11-23 13:25:57 GMT 47.114731 -4.706726 33,000 269 514 0
2021-11-23 13:25:52 GMT 47.115051 -4.689995 33,000 269 514 0
2021-11-23 13:25:47 GMT 47.115475 -4.670175 33,000 269 515 0
2021-11-23 13:25:43 GMT 47.115707 -4.658696 33,000 269 515 0
2021-11-23 13:25:37 GMT 47.116196 -4.634651 33,000 269 515 0
2021-11-23 13:25:32 GMT 47.116516 -4.617897 33,000 269 515 0
2021-11-23 13:25:27 GMT 47.116882 -4.597298 33,000 269 515 0
2021-11-23 13:25:15 GMT 47.117615 -4.560312 33,000 269 515 0
2021-11-23 13:25:12 GMT 47.117798 -4.550537 33,000 269 515 0
2021-11-23 13:25:06 GMT 47.118267 -4.527212 33,000 269 515 0
2021-11-23 13:25:02 GMT 47.118454 -4.515310 33,000 269 516 0
2021-11-23 13:24:57 GMT 47.118824 -4.497211 33,000 269 516 0
2021-11-23 13:24:52 GMT 47.119125 -4.479744 33,000 269 516 0
2021-11-23 13:24:45 GMT 47.119583 -4.454613 33,000 269 516 0
2021-11-23 13:24:41 GMT 47.119850 -4.442772 33,000 269 516 0
2021-11-23 13:24:36 GMT 47.120270 -4.420377 33,000 269 516 0
2021-11-23 13:24:30 GMT 47.120590 -4.401192 33,000 269 516 0
2021-11-23 13:24:24 GMT 47.120968 -4.381643 33,000 269 516 0
2021-11-23 13:24:21 GMT 47.121105 -4.372911 33,000 269 516 0
2021-11-23 13:24:15 GMT 47.121525 -4.348473 33,000 269 516 0
2021-11-23 13:24:11 GMT 47.121780 -4.335205 33,000 269 516 0
2021-11-23 13:24:08 GMT 47.121918 -4.325386 33,000 269 516 0
2021-11-23 13:24:04 GMT 47.122131 -4.313190 33,000 269 516 0
2021-11-23 13:24:01 GMT 47.122318 -4.303401 33,000 269 516 0
2021-11-23 13:23:57 GMT 47.122559 -4.288719 33,000 269 517 0
2021-11-23 13:23:54 GMT 47.122742 -4.278557 33,000 269 517 0
2021-11-23 13:23:50 GMT 47.122971 -4.264206 33,000 269 517 0
2021-11-23 13:23:44 GMT 47.123428 -4.237976 33,000 269 517 0
2021-11-23 13:23:39 GMT 47.123619 -4.225722 33,000 269 517 0
2021-11-23 13:23:36 GMT 47.123852 -4.212764 33,000 269 517 0
2021-11-23 13:23:32 GMT 47.124084 -4.198749 33,000 269 518 0
2021-11-23 13:23:25 GMT 47.124481 -4.173500 33,000 269 518 0
2021-11-23 13:23:21 GMT 47.124710 -4.160248 33,000 269 518 -64
2021-11-23 13:23:15 GMT 47.124969 -4.141987 33,000 269 518 0
2021-11-23 13:23:11 GMT 47.125168 -4.127975 33,000 269 518 0
2021-11-23 13:23:07 GMT 47.125435 -4.111140 33,000 269 518 0
2021-11-23 13:23:01 GMT 47.125717 -4.091171 33,000 269 518 0
2021-11-23 13:22:57 GMT 47.125950 -4.075787 33,000 269 518 0
2021-11-23 13:22:51 GMT 47.126274 -4.055082 33,000 269 518 0
2021-11-23 13:22:46 GMT 47.126541 -4.037201 33,000 269 518 0
2021-11-23 13:22:40 GMT 47.126831 -4.017545 33,000 269 518 0
2021-11-23 13:22:31 GMT 47.127296 -3.985572 33,000 269 518 0
2021-11-23 13:22:25 GMT 47.127625 -3.961769 33,000 269 518 0
2021-11-23 13:22:21 GMT 47.127762 -3.951557 33,000 269 518 0
2021-11-23 13:22:17 GMT 47.128040 -3.933669 33,000 269 518 0
2021-11-23 13:22:10 GMT 47.128368 -3.911907 33,000 269 518 0
2021-11-23 13:22:04 GMT 47.128693 -3.888104 33,000 269 517 0
2021-11-23 13:22:00 GMT 47.128834 -3.879301 33,000 269 518 0
2021-11-23 13:21:54 GMT 47.129162 -3.856201 33,000 269 517 0
2021-11-23 13:21:50 GMT 47.129345 -3.843947 33,000 269 517 0
2021-11-23 13:21:46 GMT 47.129578 -3.827468 33,000 269 517 0
2021-11-23 13:21:40 GMT 47.129837 -3.808891 33,000 269 517 0
2021-11-23 13:21:36 GMT 47.130020 -3.792480 33,000 270 518 0
2021-11-23 13:21:31 GMT 47.130371 -3.766198 33,000 269 518 0
2021-11-23 13:21:24 GMT 47.130554 -3.747958 33,000 269 518 0
2021-11-23 13:21:20 GMT 47.130707 -3.737411 33,000 269 518 -64
2021-11-23 13:21:12 GMT 47.131073 -3.709396 33,000 270 517 0
2021-11-23 13:21:09 GMT 47.131210 -3.697174 33,000 270 517 0
2021-11-23 13:21:03 GMT 47.131439 -3.676476 33,000 270 517 64
2021-11-23 13:21:00 GMT 47.131531 -3.665314 33,000 270 517 64
2021-11-23 13:20:56 GMT 47.131714 -3.650963 33,000 270 517 64
2021-11-23 13:20:50 GMT 47.131897 -3.632423 33,000 270 517 0
2021-11-23 13:20:47 GMT 47.132034 -3.620476 33,000 270 517 -64
2021-11-23 13:20:44 GMT 47.132187 -3.609995 33,000 270 517 -128
2021-11-23 13:20:40 GMT 47.132355 -3.594589 33,000 270 517 0
2021-11-23 13:20:33 GMT 47.132607 -3.567669 33,000 270 517 0
2021-11-23 13:20:29 GMT 47.132721 -3.557167 33,000 270 517 0
2021-11-23 13:20:26 GMT 47.132790 -3.548373 33,000 270 517 0
2021-11-23 13:20:22 GMT 47.132950 -3.534714 33,000 270 517 0
2021-11-23 13:20:19 GMT 47.133041 -3.523178 33,000 270 517 0
2021-11-23 13:20:15 GMT 47.133133 -3.510956 33,000 270 517 0
2021-11-23 13:20:12 GMT 47.133224 -3.499077 33,000 270 517 0
2021-11-23 13:20:09 GMT 47.133316 -3.489601 33,000 270 517 0
2021-11-23 13:20:06 GMT 47.133499 -3.462616 33,000 270 517 0
2021-11-23 13:20:02 GMT 47.133499 -3.462616 33,000 270 517 0
2021-11-23 13:19:59 GMT 47.133591 -3.452110 33,000 270 517 0
2021-11-23 13:19:53 GMT 47.133682 -3.432541 33,000 270 517 0
2021-11-23 13:19:49 GMT 47.133774 -3.416748 33,000 270 517 0
2021-11-23 13:19:44 GMT 47.133865 -3.401711 33,000 270 517 0
2021-11-23 13:19:41 GMT 47.133907 -3.391888 33,000 270 517 0
2021-11-23 13:19:38 GMT 47.133957 -3.380013 33,000 270 517 0
2021-11-23 13:19:35 GMT 47.134003 -3.369141 33,000 270 517 0
2021-11-23 13:19:32 GMT 47.134048 -3.356182 33,000 270 517 0
2021-11-23 13:19:28 GMT 47.134094 -3.344633 33,000 270 517 0
2021-11-23 13:19:25 GMT 47.134094 -3.333458 33,000 270 517 0
2021-11-23 13:19:19 GMT 47.134186 -3.312800 33,000 270 518 64
2021-11-23 13:19:15 GMT 47.134232 -3.296654 33,000 270 518 64
2021-11-23 13:19:10 GMT 47.134323 -3.279144 33,000 270 518 0
2021-11-23 13:19:07 GMT 47.134327 -3.272447 33,000 270 519 0
2021-11-23 13:19:03 GMT 47.134418 -3.258080 33,000 270 519 0
2021-11-23 13:19:00 GMT 47.134468 -3.247868 33,000 270 519 0
2021-11-23 13:18:57 GMT 47.134560 -3.236953 33,000 270 519 0
2021-11-23 13:18:51 GMT 47.134781 -3.213432 33,000 269 519 0
2021-11-23 13:18:47 GMT 47.134979 -3.200754 33,000 268 519 0
2021-11-23 13:18:41 GMT 47.135536 -3.175471 33,000 268 519 0
2021-11-23 13:18:37 GMT 47.135834 -3.165642 33,000 268 519 0
2021-11-23 13:18:33 GMT 47.136246 -3.151909 33,000 268 519 0
2021-11-23 13:18:30 GMT 47.136520 -3.141060 33,000 268 519 -64
2021-11-23 13:18:26 GMT 47.136932 -3.127019 33,000 269 519 0
2021-11-23 13:18:24 GMT 47.137161 -3.118538 33,000 269 518 0
2021-11-23 13:18:21 GMT 47.137306 -3.111173 33,000 269 519 0
2021-11-23 13:18:17 GMT 47.137756 -3.092583 33,000 265 518 0
2021-11-23 13:18:14 GMT 47.138050 -3.084130 33,000 266 518 0
2021-11-23 13:18:11 GMT 47.139450 -3.061752 33,000 263 518 0
2021-11-23 13:18:08 GMT 47.139450 -3.061752 33,000 263 518 0
2021-11-23 13:18:04 GMT 47.140892 -3.047509 33,000 260 518 0
2021-11-23 13:18:01 GMT 47.141876 -3.039574 33,000 254 517 0
2021-11-23 13:17:58 GMT 47.143173 -3.029903 33,000 257 518 0
2021-11-23 13:17:55 GMT 47.144756 -3.019973 33,000 257 518 0
2021-11-23 13:17:52 GMT 47.146664 -3.009479 33,000 254 517 0
2021-11-23 13:17:50 GMT 47.148697 -2.999336 33,000 248 517 0
2021-11-23 13:17:46 GMT 47.151180 -2.988000 33,000 249 517 0
2021-11-23 13:17:43 GMT 47.153740 -2.977788 33,000 249 517 0
2021-11-23 13:17:39 GMT 47.157043 -2.965675 33,000 247 517 0
2021-11-23 13:17:36 GMT 47.160507 -2.954155 33,000 245 517 0
2021-11-23 13:17:33 GMT 47.164494 -2.942153 33,000 241 516 0
2021-11-23 13:17:28 GMT 47.168564 -2.931015 33,000 240 516 0
2021-11-23 13:17:24 GMT 47.172775 -2.920441 33,000 239 516 0
2021-11-23 13:17:20 GMT 47.178497 -2.906708 33,000 239 516 0
2021-11-23 13:17:17 GMT 47.181519 -2.899567 33,000 239 516 0
2021-11-23 13:17:13 GMT 47.187351 -2.885531 33,000 239 516 0
2021-11-23 13:17:07 GMT 47.194107 -2.869423 33,000 239 516 0
2021-11-23 13:17:04 GMT 47.197872 -2.860530 33,000 239 516 0
2021-11-23 13:16:58 GMT 47.206856 -2.839050 33,000 239 515 -64
2021-11-23 13:16:55 GMT 47.210487 -2.830458 33,000 239 515 -64
2021-11-23 13:16:51 GMT 47.213974 -2.822113 33,000 239 514 -64
2021-11-23 13:16:47 GMT 47.219749 -2.808415 33,000 239 515 0
2021-11-23 13:16:42 GMT 47.225475 -2.794753 33,000 239 514 0
2021-11-23 13:16:40 GMT 47.227798 -2.789085 33,000 239 514 0
2021-11-23 13:16:37 GMT 47.232193 -2.778717 33,000 239 514 0
2021-11-23 13:16:34 GMT 47.235905 -2.769752 33,000 239 514 0
2021-11-23 13:16:31 GMT 47.239151 -2.762032 33,000 239 514 64
2021-11-23 13:16:27 GMT 47.244610 -2.748976 33,000 239 514 0
2021-11-23 13:16:24 GMT 47.248306 -2.740059 33,000 239 514 0
2021-11-23 13:16:21 GMT 47.251545 -2.732286 33,000 239 514 0
2021-11-23 13:16:17 GMT 47.257050 -2.719185 33,000 239 514 -64
2021-11-23 13:16:14 GMT 47.260895 -2.709984 33,000 239 514 -64
2021-11-23 13:16:11 GMT 47.264347 -2.701651 33,000 239 514 0
2021-11-23 13:16:07 GMT 47.269592 -2.689178 33,000 239 514 0
2021-11-23 13:16:03 GMT 47.280872 -2.662072 33,000 239 514 0
2021-11-23 13:15:59 GMT 47.280872 -2.662072 33,000 239 514 0
2021-11-23 13:15:56 GMT 47.282867 -2.657318 33,000 239 514 0
2021-11-23 13:15:53 GMT 47.286552 -2.648409 33,000 239 514 64
2021-11-23 13:15:49 GMT 47.292023 -2.635277 33,000 239 514 64
2021-11-23 13:15:46 GMT 47.295258 -2.627563 33,000 239 514 0
2021-11-23 13:15:43 GMT 47.298843 -2.618866 33,000 239 515 64
2021-11-23 13:15:39 GMT 47.303310 -2.608126 33,000 239 515 64
2021-11-23 13:15:36 GMT 47.307312 -2.598610 33,000 239 515 0
2021-11-23 13:15:33 GMT 47.311615 -2.588104 33,000 239 515 0
2021-11-23 13:15:30 GMT 47.314857 -2.580379 33,000 239 515 0
2021-11-23 13:15:27 GMT 47.325165 -2.555557 33,000 239 514 0
2021-11-23 13:15:22 GMT 47.325165 -2.555557 33,000 239 513 0
2021-11-23 13:15:18 GMT 47.330475 -2.542786 33,000 239 513 0
2021-11-23 13:15:15 GMT 47.334175 -2.533828 33,000 239 513 0
2021-11-23 13:15:10 GMT 47.340637 -2.518341 33,000 239 512 0
2021-11-23 13:15:06 GMT 47.345070 -2.507629 33,000 239 512 0
2021-11-23 13:15:03 GMT 47.349632 -2.496573 33,000 239 512 0
2021-11-23 13:14:59 GMT 47.353729 -2.486784 33,000 239 512 0
2021-11-23 13:14:56 GMT 47.357544 -2.477558 33,000 239 512 0
2021-11-23 13:14:52 GMT 47.362244 -2.466225 33,000 239 512 0
2021-11-23 13:14:49 GMT 47.366318 -2.456406 33,000 239 513 0
2021-11-23 13:14:46 GMT 47.369972 -2.447486 33,000 239 513 0
2021-11-23 13:14:42 GMT 47.374924 -2.435532 33,000 239 513 0
2021-11-23 13:14:39 GMT 47.378586 -2.426570 33,000 239 513 0
2021-11-23 13:14:36 GMT 47.382915 -2.416147 33,000 239 512 0
2021-11-23 13:14:33 GMT 47.384766 -2.411636 33,000 239 512 0
2021-11-23 13:14:31 GMT 47.387943 -2.403893 33,000 239 512 0
2021-11-23 13:14:27 GMT 47.392273 -2.393470 33,000 239 512 0
2021-11-23 13:14:25 GMT 47.399780 -2.375313 33,000 239 512 0
2021-11-23 13:14:21 GMT 47.399780 -2.375313 33,000 239 512 0
2021-11-23 13:14:18 GMT 47.404129 -2.364876 33,000 239 512 -64
2021-11-23 13:14:15 GMT 47.407310 -2.357131 33,000 239 512 -64
2021-11-23 13:14:12 GMT 47.412384 -2.344877 33,000 239 512 -64
2021-11-23 13:14:09 GMT 47.414703 -2.339264 33,000 239 512 0
2021-11-23 13:14:06 GMT 47.419132 -2.328538 33,000 239 512 64
2021-11-23 13:14:03 GMT 47.422073 -2.321342 33,000 239 512 64
2021-11-23 13:14:00 GMT 47.427235 -2.308819 33,000 239 512 0
2021-11-23 13:13:57 GMT 47.429718 -2.302872 33,000 239 512 0
2021-11-23 13:13:54 GMT 47.433975 -2.292366 33,000 239 512 0
2021-11-23 13:13:51 GMT 47.437660 -2.283396 33,000 239 512 0
2021-11-23 13:13:47 GMT 47.441807 -2.273254 33,000 239 512 0
2021-11-23 13:13:44 GMT 47.449905 -2.253535 33,000 239 512 0
2021-11-23 13:13:41 GMT 47.449905 -2.253535 33,000 239 512 0
2021-11-23 13:13:37 GMT 47.454071 -2.243340 33,000 239 513 0
2021-11-23 13:13:34 GMT 47.458237 -2.233182 33,000 239 512 0
2021-11-23 13:13:29 GMT 47.464615 -2.217619 33,000 239 512 64
2021-11-23 13:13:24 GMT 47.472855 -2.197618 33,000 239 512 0
2021-11-23 13:13:19 GMT 47.477043 -2.187477 33,000 239 512 0
2021-11-23 13:13:15 GMT 47.481720 -2.176186 33,000 239 512 0
2021-11-23 13:13:08 GMT 47.489731 -2.156754 33,000 239 512 0
2021-11-23 13:13:04 GMT 47.495728 -2.142128 33,000 239 512 0
2021-11-23 13:13:00 GMT 47.503098 -2.124138 33,000 239 512 0
2021-11-23 13:12:57 GMT 47.503098 -2.124138 33,000 239 512 64
2021-11-23 13:12:53 GMT 47.509094 -2.109512 32,975 239 513 64
2021-11-23 13:12:48 GMT 47.514221 -2.096878 33,000 240 513 0
2021-11-23 13:12:45 GMT 47.519127 -2.084937 33,000 240 513 0
2021-11-23 13:12:42 GMT 47.521317 -2.079515 33,000 240 513 0
2021-11-23 13:12:38 GMT 47.527412 -2.064514 33,000 240 513 0
2021-11-23 13:12:34 GMT 47.531662 -2.053963 33,000 239 512 0
2021-11-23 13:12:31 GMT 47.534683 -2.046478 33,000 239 512 0
2021-11-23 13:12:28 GMT 47.539352 -2.035080 33,000 239 512 0
2021-11-23 13:12:22 GMT 47.546997 -2.016266 33,000 239 511 0
2021-11-23 13:12:19 GMT 47.550064 -2.008781 33,000 239 511 0
2021-11-23 13:12:16 GMT 47.553112 -2.001272 33,000 239 511 0
2021-11-23 13:12:13 GMT 47.556183 -1.993807 33,000 239 512 -64
2021-11-23 13:12:11 GMT 47.559357 -1.986053 33,025 239 512 -64
2021-11-23 13:12:08 GMT 47.563614 -1.975548 33,000 240 511 0
2021-11-23 13:12:04 GMT 47.569702 -1.960579 33,000 240 511 0
2021-11-23 13:12:01 GMT 47.572243 -1.954299 33,000 240 511 0
2021-11-23 13:11:59 GMT 47.573822 -1.950348 33,000 239 512 0
2021-11-23 13:11:56 GMT 47.578945 -1.937749 33,000 239 512 0
2021-11-23 13:11:53 GMT 47.581509 -1.931481 33,000 239 512 64
2021-11-23 13:11:50 GMT 47.585045 -1.922748 32,975 239 512 0
2021-11-23 13:11:47 GMT 47.588699 -1.913750 33,000 239 512 0
2021-11-23 13:11:43 GMT 47.593845 -1.901198 33,000 240 513 0
2021-11-23 13:11:40 GMT 47.597755 -1.891550 33,000 240 513 -64
2021-11-23 13:11:38 GMT 47.600922 -1.883743 33,000 240 513 0
2021-11-23 13:11:34 GMT 47.604080 -1.875916 33,000 240 513 0
2021-11-23 13:11:31 GMT 47.609299 -1.863007 33,000 240 513 0
2021-11-23 13:11:27 GMT 47.612930 -1.853943 33,000 240 513 0
2021-11-23 13:11:25 GMT 47.615166 -1.848520 33,000 240 513 0
2021-11-23 13:11:22 GMT 47.620010 -1.836502 33,000 240 513 0
2021-11-23 13:11:19 GMT 47.623306 -1.828400 33,000 240 513 0
2021-11-23 13:11:17 GMT 47.625137 -1.823868 33,000 240 513 0
2021-11-23 13:11:12 GMT 47.631737 -1.807533 33,000 240 514 0
2021-11-23 13:11:09 GMT 47.635277 -1.798800 33,000 240 514 0
2021-11-23 13:11:07 GMT 47.637928 -1.792180 33,000 240 514 0
2021-11-23 13:11:02 GMT 47.643539 -1.778275 33,000 240 515 0
2021-11-23 13:10:59 GMT 47.647842 -1.767632 33,000 240 515 0
2021-11-23 13:10:56 GMT 47.650360 -1.761314 33,000 240 515 0
2021-11-23 13:10:53 GMT 47.655621 -1.748305 33,000 240 515 0
2021-11-23 13:10:50 GMT 47.657547 -1.743393 33,000 240 515 0
2021-11-23 13:10:47 GMT 47.661949 -1.732530 33,000 240 515 64
2021-11-23 13:10:44 GMT 47.667068 -1.719841 33,000 240 515 64
2021-11-23 13:10:41 GMT 47.669025 -1.714994 33,000 240 515 0
2021-11-23 13:10:36 GMT 47.675125 -1.699791 33,000 240 515 0
2021-11-23 13:10:31 GMT 47.681534 -1.683723 33,000 240 515 0
2021-11-23 13:10:28 GMT 47.685459 -1.674077 33,000 240 515 0
2021-11-23 13:10:26 GMT 47.688950 -1.665274 33,000 240 515 0
2021-11-23 13:10:21 GMT 47.694077 -1.652550 33,000 240 514 0
2021-11-23 13:10:18 GMT 47.697601 -1.643761 33,000 240 514 0
2021-11-23 13:10:16 GMT 47.699295 -1.639572 33,000 240 514 0
2021-11-23 13:10:13 GMT 47.706573 -1.621376 33,000 240 514 0
2021-11-23 13:10:10 GMT 47.706573 -1.621376 33,000 240 514 0
2021-11-23 13:10:06 GMT 47.711792 -1.608398 33,000 240 514 0
2021-11-23 13:10:00 GMT 47.719574 -1.589035 33,000 240 513 0
2021-11-23 13:09:56 GMT 47.724289 -1.577225 33,000 240 513 0
2021-11-23 13:09:53 GMT 47.727448 -1.569328 33,000 240 513 0
2021-11-23 13:09:51 GMT 47.730335 -1.562101 33,000 240 513 0
2021-11-23 13:09:46 GMT 47.736385 -1.546960 33,000 240 513 0
2021-11-23 13:09:43 GMT 47.740036 -1.537880 33,000 240 513 0
2021-11-23 13:09:41 GMT 47.742462 -1.531837 33,000 240 512 0
2021-11-23 13:09:37 GMT 47.747280 -1.519775 33,000 240 512 0
2021-11-23 13:09:31 GMT 47.754776 -1.500972 33,000 240 513 0
2021-11-23 13:09:26 GMT 47.761433 -1.484352 33,000 240 513 0
2021-11-23 13:09:23 GMT 47.764458 -1.476816 33,000 240 513 0
2021-11-23 13:09:21 GMT 47.766861 -1.470726 33,000 240 513 0
2021-11-23 13:09:15 GMT 47.773270 -1.454659 33,000 240 513 64
2021-11-23 13:09:13 GMT 47.776749 -1.445869 33,000 240 513 64
2021-11-23 13:09:10 GMT 47.779541 -1.438927 33,000 240 513 64
2021-11-23 13:09:06 GMT 47.786057 -1.422589 33,000 240 513 0
2021-11-23 13:09:03 GMT 47.792587 -1.406181 33,000 240 513 0
2021-11-23 13:08:59 GMT 47.792587 -1.406181 33,000 240 513 0
2021-11-23 13:08:55 GMT 47.798023 -1.392588 33,000 240 513 0
2021-11-23 13:08:53 GMT 47.800781 -1.385582 33,000 240 512 0
2021-11-23 13:08:50 GMT 47.803299 -1.379196 33,000 240 512 0
2021-11-23 13:08:46 GMT 47.808357 -1.366460 33,000 240 512 -64
2021-11-23 13:08:44 GMT 47.811382 -1.358924 33,000 240 512 -64
2021-11-23 13:08:41 GMT 47.814606 -1.350700 33,000 240 512 0
2021-11-23 13:08:38 GMT 47.817627 -1.343147 33,000 240 512 0
2021-11-23 13:08:35 GMT 47.822697 -1.330402 33,000 240 511 0
2021-11-23 13:08:33 GMT 47.824463 -1.325895 33,000 240 511 0
2021-11-23 13:08:31 GMT 47.826653 -1.320402 33,000 240 511 0
2021-11-23 13:08:28 GMT 47.830490 -1.310738 33,000 240 511 0
2021-11-23 13:08:24 GMT 47.837952 -1.291992 33,000 240 511 0
2021-11-23 13:08:21 GMT 47.837952 -1.291992 33,000 240 511 0
2021-11-23 13:08:19 GMT 47.840790 -1.284714 33,000 240 511 0
2021-11-23 13:08:16 GMT 47.844269 -1.275925 33,000 240 511 0
2021-11-23 13:08:12 GMT 47.849091 -1.263850 33,000 240 511 0
2021-11-23 13:08:10 GMT 47.852535 -1.255047 33,000 240 511 0
2021-11-23 13:08:06 GMT 47.857086 -1.243584 33,000 240 511 0
2021-11-23 13:08:02 GMT 47.861755 -1.231773 33,000 240 511 0
2021-11-23 13:08:00 GMT 47.863449 -1.227516 33,000 240 511 0
2021-11-23 13:07:57 GMT 47.867012 -1.218426 33,000 240 510 0
2021-11-23 13:07:54 GMT 47.872181 -1.205468 33,000 240 510 0
2021-11-23 13:07:51 GMT 47.875019 -1.198214 33,000 240 510 0
2021-11-23 13:07:49 GMT 47.876953 -1.193321 33,000 240 510 0
2021-11-23 13:07:46 GMT 47.880524 -1.184258 33,000 240 510 0
2021-11-23 13:07:43 GMT 47.884460 -1.174301 33,000 240 510 0
2021-11-23 13:07:40 GMT 47.887436 -1.166748 33,000 240 510 0
2021-11-23 13:07:37 GMT 47.891499 -1.156522 33,000 240 510 0
2021-11-23 13:07:34 GMT 47.895222 -1.147085 33,000 240 510 0
2021-11-23 13:07:31 GMT 47.898788 -1.138046 33,000 240 510 0
2021-11-23 13:07:29 GMT 47.901043 -1.132296 33,000 240 510 0
2021-11-23 13:07:26 GMT 47.905334 -1.121429 33,000 240 509 0
2021-11-23 13:07:22 GMT 47.909607 -1.110535 33,000 240 509 0
2021-11-23 13:07:20 GMT 47.911377 -1.105980 33,000 240 509 0
2021-11-23 13:07:17 GMT 47.915909 -1.094444 33,000 240 509 -64
2021-11-23 13:07:13 GMT 47.919800 -1.084488 33,000 240 509 0
2021-11-23 13:07:10 GMT 47.923855 -1.074266 33,000 240 509 0
2021-11-23 13:07:07 GMT 47.930790 -1.056730 33,000 240 509 0
2021-11-23 13:07:04 GMT 47.930790 -1.056730 33,000 240 509 0
2021-11-23 13:07:01 GMT 47.933861 -1.048913 33,000 240 509 0
2021-11-23 13:06:57 GMT 47.938236 -1.037715 33,000 240 508 0
2021-11-23 13:06:54 GMT 47.942894 -1.025954 33,000 240 508 0
2021-11-23 13:06:51 GMT 47.945873 -1.018419 33,000 240 508 0
2021-11-23 13:06:48 GMT 47.949783 -1.008418 33,000 240 508 0
2021-11-23 13:06:45 GMT 47.952156 -1.002362 33,000 240 508 0
2021-11-23 13:06:43 GMT 47.955833 -0.992995 33,000 240 508 0
2021-11-23 13:06:40 GMT 47.958347 -0.986657 33,000 240 508 0
2021-11-23 13:06:38 GMT 47.961189 -0.979403 33,000 240 508 64
2021-11-23 13:06:35 GMT 47.964249 -0.971603 33,000 240 508 0
2021-11-23 13:06:33 GMT 47.967098 -0.964332 33,000 240 508 0
2021-11-23 13:06:30 GMT 47.970657 -0.955261 33,000 240 509 0
2021-11-23 13:06:28 GMT 47.973618 -0.947712 33,000 240 509 -64
2021-11-23 13:06:25 GMT 47.976929 -0.939262 33,000 240 509 -64
2021-11-23 13:06:23 GMT 47.978691 -0.934683 33,000 240 508 -64
2021-11-23 13:06:21 GMT 47.981506 -0.927452 33,000 240 507 0
2021-11-23 13:06:18 GMT 47.985069 -0.918344 33,000 240 507 0
2021-11-23 13:06:16 GMT 47.987640 -0.911728 33,000 240 507 0
2021-11-23 13:06:13 GMT 47.990704 -0.903837 33,000 240 507 0
2021-11-23 13:06:11 GMT 47.993637 -0.896278 33,000 240 507 0
2021-11-23 13:06:08 GMT 47.997299 -0.886940 33,000 240 507 0
2021-11-23 13:06:06 GMT 48.002480 -0.873624 33,000 240 506 0
2021-11-23 13:06:03 GMT 48.002480 -0.873624 33,000 240 506 0
2021-11-23 13:06:01 GMT 48.005413 -0.866089 33,000 240 506 0
2021-11-23 13:05:59 GMT 48.007881 -0.859751 33,000 240 506 0
2021-11-23 13:05:56 GMT 48.011169 -0.851303 33,000 240 506 0
2021-11-23 13:05:53 GMT 48.018356 -0.832970 33,000 240 506 64
2021-11-23 13:05:50 GMT 48.018356 -0.832970 33,000 240 506 0
2021-11-23 13:05:47 GMT 48.021893 -0.823904 33,000 240 506 0
2021-11-23 13:05:43 GMT 48.026222 -0.812707 33,000 240 506 0
2021-11-23 13:05:40 GMT 48.031403 -0.799461 33,000 240 506 0
2021-11-23 13:05:38 GMT 48.031403 -0.799461 33,000 240 506 0
2021-11-23 13:05:35 GMT 48.035980 -0.787720 33,000 240 506 0
2021-11-23 13:05:32 GMT 48.039597 -0.778313 33,000 240 506 0
2021-11-23 13:05:28 GMT 48.044331 -0.766296 33,000 240 506 0
2021-11-23 13:05:25 GMT 48.047333 -0.758400 33,000 240 506 0
2021-11-23 13:05:23 GMT 48.049591 -0.752704 33,000 240 506 0
2021-11-23 13:05:20 GMT 48.053455 -0.742774 33,000 240 505 0
2021-11-23 13:05:18 GMT 48.056488 -0.734917 33,000 240 505 0
2021-11-23 13:05:15 GMT 48.059418 -0.727364 33,000 240 505 0
2021-11-23 13:05:11 GMT 48.063278 -0.717421 33,000 240 504 0
2021-11-23 13:05:08 GMT 48.067932 -0.705379 33,000 240 504 0
2021-11-23 13:05:05 GMT 48.070999 -0.697495 33,000 240 504 0
2021-11-23 13:05:03 GMT 48.073425 -0.691223 33,000 240 504 0
2021-11-23 13:05:00 GMT 48.077290 -0.681223 33,000 240 504 0
2021-11-23 13:04:58 GMT 48.079056 -0.676758 33,000 240 504 0
2021-11-23 13:04:55 GMT 48.082085 -0.668898 33,000 241 504 0
2021-11-23 13:04:53 GMT 48.084644 -0.662278 33,000 241 504 0
2021-11-23 13:04:49 GMT 48.089859 -0.648674 33,000 241 504 -64
2021-11-23 13:04:46 GMT 48.094437 -0.636932 33,000 241 504 0
2021-11-23 13:04:43 GMT 48.096607 -0.631221 33,000 241 504 0
2021-11-23 13:04:41 GMT 48.098969 -0.625191 33,000 241 504 0
2021-11-23 13:04:38 GMT 48.102310 -0.616402 33,000 241 504 0
2021-11-23 13:04:35 GMT 48.105686 -0.607699 33,000 241 504 0
2021-11-23 13:04:33 GMT 48.112904 -0.588966 33,000 241 504 -64
2021-11-23 13:04:29 GMT 48.112904 -0.588966 33,000 241 505 0
2021-11-23 13:04:27 GMT 48.115448 -0.582275 33,000 241 505 0
2021-11-23 13:04:24 GMT 48.119373 -0.571993 33,000 241 505 0
2021-11-23 13:04:22 GMT 48.121124 -0.567513 33,000 241 505 0
2021-11-23 13:04:20 GMT 48.123322 -0.561745 33,000 241 505 0
2021-11-23 13:04:18 GMT 48.125198 -0.556938 33,000 241 504 0
2021-11-23 13:04:15 GMT 48.129379 -0.546077 33,000 241 504 0
2021-11-23 13:04:13 GMT 48.131607 -0.540321 33,000 241 504 0
2021-11-23 13:04:11 GMT 48.133575 -0.535172 33,000 241 504 0
2021-11-23 13:04:08 GMT 48.137295 -0.525513 33,000 241 505 0
2021-11-23 13:04:05 GMT 48.141392 -0.514949 33,000 241 505 0
2021-11-23 13:04:02 GMT 48.143719 -0.508892 33,000 241 505 0
2021-11-23 13:03:59 GMT 48.148132 -0.497406 33,000 241 505 0
2021-11-23 13:03:56 GMT 48.151062 -0.489853 33,000 241 506 64
2021-11-23 13:03:53 GMT 48.154449 -0.481133 33,000 241 505 64
2021-11-23 13:03:51 GMT 48.157127 -0.474173 33,000 241 506 64
2021-11-23 13:03:48 GMT 48.160400 -0.465651 33,000 241 506 0
2021-11-23 13:03:45 GMT 48.164574 -0.454776 33,000 241 506 64
2021-11-23 13:03:43 GMT 48.166203 -0.450512 33,000 241 506 0
2021-11-23 13:03:41 GMT 48.167973 -0.445958 33,000 241 506 0
2021-11-23 13:03:38 GMT 48.171928 -0.435622 33,000 241 506 0
2021-11-23 13:03:36 GMT 48.174957 -0.427763 33,000 241 506 0
2021-11-23 13:03:33 GMT 48.177841 -0.420157 33,000 241 506 0
2021-11-23 13:03:29 GMT 48.182495 -0.408084 33,000 241 505 0
2021-11-23 13:03:26 GMT 48.186905 -0.396564 33,000 241 504 0
2021-11-23 13:03:23 GMT 48.189789 -0.388958 33,000 241 504 0
2021-11-23 13:03:20 GMT 48.193176 -0.380226 33,000 241 504 0
2021-11-23 13:03:17 GMT 48.195694 -0.373535 33,000 241 504 0
2021-11-23 13:03:15 GMT 48.199081 -0.364802 33,000 241 504 0
2021-11-23 13:03:12 GMT 48.202328 -0.356333 33,000 241 504 0
2021-11-23 13:03:10 GMT 48.204849 -0.349661 33,000 241 504 0
2021-11-23 13:03:07 GMT 48.207729 -0.342094 33,000 241 504 0
2021-11-23 13:03:05 GMT 48.210526 -0.334872 33,000 241 504 0
2021-11-23 13:03:02 GMT 48.214325 -0.324871 33,000 241 504 0
2021-11-23 13:02:59 GMT 48.217484 -0.316702 33,000 241 504 0
2021-11-23 13:02:57 GMT 48.220963 -0.307617 33,000 241 505 0
2021-11-23 13:02:54 GMT 48.226070 -0.294246 33,000 241 505 0
2021-11-23 13:02:52 GMT 48.226070 -0.294246 33,000 241 505 0
2021-11-23 13:02:49 GMT 48.229191 -0.286078 33,000 241 505 0
2021-11-23 13:02:44 GMT 48.234512 -0.272052 33,000 241 506 0
2021-11-23 13:02:42 GMT 48.237057 -0.265407 33,000 241 506 0
2021-11-23 13:02:39 GMT 48.241154 -0.254782 33,000 241 507 0
2021-11-23 13:02:37 GMT 48.246231 -0.241347 33,000 241 506 0
2021-11-23 13:02:34 GMT 48.246231 -0.241347 33,000 241 507 0
2021-11-23 13:02:31 GMT 48.249393 -0.233170 33,000 241 506 0
2021-11-23 13:02:28 GMT 48.253582 -0.222184 33,000 241 506 -64
2021-11-23 13:02:26 GMT 48.255863 -0.216113 33,000 241 506 -64
2021-11-23 13:02:23 GMT 48.258636 -0.208811 33,000 241 506 -64
2021-11-23 13:02:21 GMT 48.260845 -0.203030 33,000 241 506 0
2021-11-23 13:02:18 GMT 48.265362 -0.191177 33,000 241 505 0
2021-11-23 13:02:16 GMT 48.268341 -0.183246 33,000 241 505 0
2021-11-23 13:02:13 GMT 48.270767 -0.176838 33,000 241 505 0
2021-11-23 13:02:10 GMT 48.273647 -0.169276 33,000 241 505 0
2021-11-23 13:02:07 GMT 48.276531 -0.161615 33,000 241 505 0
2021-11-23 13:02:04 GMT 48.281570 -0.148245 33,000 241 505 0
2021-11-23 13:02:01 GMT 48.284454 -0.140639 33,000 241 505 0
2021-11-23 13:01:58 GMT 48.288025 -0.131273 33,000 241 504 0
2021-11-23 13:01:53 GMT 48.293339 -0.117236 33,000 241 504 0
2021-11-23 13:01:50 GMT 48.297806 -0.105382 33,000 241 504 0
2021-11-23 13:01:47 GMT 48.299904 -0.099889 33,000 241 504 0
2021-11-23 13:01:43 GMT 48.304916 -0.086553 33,000 241 504 0
2021-11-23 13:01:41 GMT 48.307907 -0.078639 33,000 241 503 0
2021-11-23 13:01:38 GMT 48.311493 -0.069243 33,000 241 503 0
2021-11-23 13:01:34 GMT 48.316429 -0.056160 33,000 241 504 0
2021-11-23 13:01:31 GMT 48.321487 -0.042819 33,000 241 503 0
2021-11-23 13:01:27 GMT 48.323318 -0.037959 33,000 241 503 0
2021-11-23 13:01:23 GMT 48.333187 -0.011781 33,000 241 504 0
2021-11-23 13:01:19 GMT 48.333187 -0.011781 33,000 241 504 0
2021-11-23 13:01:16 GMT 48.335606 -0.005421 33,000 241 504 0
2021-11-23 13:01:14 GMT 48.339020 0.003733 33,000 241 504 0
2021-11-23 13:01:11 GMT 48.342361 0.012536 33,000 241 504 0
2021-11-23 13:01:08 GMT 48.345848 0.021973 33,000 241 504 0
2021-11-23 13:01:06 GMT 48.350876 0.035353 33,000 241 503 -64
2021-11-23 13:01:03 GMT 48.350876 0.035353 33,000 241 503 -64
2021-11-23 13:01:01 GMT 48.353390 0.042066 33,000 241 503 -64
2021-11-23 13:00:58 GMT 48.358292 0.055143 33,000 241 503 0
2021-11-23 13:00:52 GMT 48.362843 0.067291 33,000 241 504 64
2021-11-23 13:00:49 GMT 48.366611 0.077338 33,000 241 504 0
2021-11-23 13:00:47 GMT 48.368706 0.082831 33,000 241 503 64
2021-11-23 13:00:44 GMT 48.373260 0.095004 33,000 241 504 0
2021-11-23 13:00:41 GMT 48.375641 0.101412 33,000 241 504 0
2021-11-23 13:00:37 GMT 48.380203 0.113622 33,000 241 504 0
2021-11-23 13:00:35 GMT 48.383045 0.121211 33,000 241 504 0
2021-11-23 13:00:32 GMT 48.386909 0.131619 33,000 241 504 64
2021-11-23 13:00:29 GMT 48.390213 0.140437 33,000 241 504 64
2021-11-23 13:00:27 GMT 48.392075 0.145358 33,000 241 504 0
2021-11-23 13:00:24 GMT 48.396973 0.158457 33,000 241 504 0
2021-11-23 13:00:21 GMT 48.398987 0.163950 33,000 241 503 0
2021-11-23 13:00:18 GMT 48.402641 0.173685 33,000 241 503 0
2021-11-23 13:00:16 GMT 48.403702 0.176415 33,000 241 503 0
2021-11-23 13:00:14 GMT 48.406311 0.183458 33,000 241 503 0
2021-11-23 13:00:12 GMT 48.408691 0.189866 33,000 241 503 0
2021-11-23 13:00:10 GMT 48.411301 0.196814 33,000 241 503 0
2021-11-23 13:00:07 GMT 48.414734 0.205994 33,000 241 503 0
2021-11-23 13:00:03 GMT 48.419632 0.219093 33,000 241 503 0
2021-11-23 12:59:59 GMT 48.423157 0.228530 33,000 241 502 0
2021-11-23 12:59:56 GMT 48.427036 0.238880 33,000 241 502 0
2021-11-23 12:59:53 GMT 48.432037 0.252263 33,000 241 502 0
2021-11-23 12:59:50 GMT 48.434189 0.258038 33,000 241 503 0
2021-11-23 12:59:46 GMT 48.439186 0.271406 33,000 241 502 0
2021-11-23 12:59:44 GMT 48.441376 0.277188 33,000 241 503 0
2021-11-23 12:59:42 GMT 48.442959 0.281452 33,000 241 503 0
2021-11-23 12:59:39 GMT 48.446495 0.290921 33,000 241 504 0
2021-11-23 12:59:36 GMT 48.450394 0.301208 33,000 241 504 0
2021-11-23 12:59:34 GMT 48.453690 0.310082 33,000 241 504 0
2021-11-23 12:59:31 GMT 48.455433 0.314628 33,000 241 504 0
2021-11-23 12:59:28 GMT 48.459435 0.325325 33,000 241 504 0
2021-11-23 12:59:25 GMT 48.462975 0.334722 33,000 241 504 0
2021-11-23 12:59:21 GMT 48.466511 0.344190 33,000 241 505 0
2021-11-23 12:59:19 GMT 48.469986 0.353394 33,000 241 505 0
2021-11-23 12:59:15 GMT 48.474197 0.364662 33,000 241 505 0
2021-11-23 12:59:12 GMT 48.481316 0.383582 33,000 241 505 0
2021-11-23 12:59:09 GMT 48.481316 0.383582 33,000 241 505 0
2021-11-23 12:59:06 GMT 48.484543 0.392127 33,000 241 505 0
2021-11-23 12:59:04 GMT 48.486282 0.396775 33,000 241 506 -64
2021-11-23 12:59:01 GMT 48.490082 0.406846 33,000 241 505 0
2021-11-23 12:58:59 GMT 48.492722 0.413867 33,000 241 506 -64
2021-11-23 12:58:56 GMT 48.495712 0.421847 33,000 241 506 -64
2021-11-23 12:58:50 GMT 48.502731 0.440537 33,000 241 508 128
2021-11-23 12:58:47 GMT 48.506313 0.450078 33,000 241 509 128
2021-11-23 12:58:45 GMT 48.512100 0.465510 32,975 241 510 256
2021-11-23 12:58:42 GMT 48.512100 0.465510 33,000 241 510 256
2021-11-23 12:58:39 GMT 48.515812 0.475376 32,975 241 511 384
2021-11-23 12:58:37 GMT 48.518696 0.483109 32,925 241 512 640
2021-11-23 12:58:31 GMT 48.525375 0.500723 32,900 241 513 832
2021-11-23 12:58:29 GMT 48.526424 0.503492 32,875 241 513 896
2021-11-23 12:58:26 GMT 48.530411 0.514033 32,725 241 514 1152
2021-11-23 12:58:23 GMT 48.538193 0.534598 32,725 241 514 1920
2021-11-23 12:58:20 GMT 48.542393 0.545775 32,675 241 514 1664
2021-11-23 12:58:17 GMT 48.542393 0.545775 32,550 241 514 1856
2021-11-23 12:58:12 GMT 48.547577 0.559528 32,400 241 515 2048
2021-11-23 12:58:09 GMT 48.551331 0.569482 32,325 241 516 1984
2021-11-23 12:58:07 GMT 48.553070 0.574176 32,125 241 517 1856
2021-11-23 12:58:04 GMT 48.556732 0.583895 32,175 241 516 1984
2021-11-23 12:58:02 GMT 48.559433 0.591079 32,100 241 517 1792
2021-11-23 12:58:00 GMT 48.561905 0.597699 32,050 241 518 1664
2021-11-23 12:57:57 GMT 48.565521 0.607417 32,000 241 517 1536
2021-11-23 12:57:55 GMT 48.567169 0.611854 31,900 241 518 1472
2021-11-23 12:57:50 GMT 48.573807 0.629812 31,750 242 518 1408
2021-11-23 12:57:47 GMT 48.576462 0.637066 31,725 242 518 1408
2021-11-23 12:57:45 GMT 48.579029 0.644001 31,500 242 518 1472
2021-11-23 12:57:40 GMT 48.584427 0.659250 31,350 243 518 1600
2021-11-23 12:57:37 GMT 48.587585 0.668194 31,475 243 518 1664
2021-11-23 12:57:35 GMT 48.589783 0.674575 31,275 243 519 1856
2021-11-23 12:57:30 GMT 48.594360 0.688124 31,325 243 518 1792
2021-11-23 12:57:27 GMT 48.598721 0.700957 31,150 243 519 1984
2021-11-23 12:57:23 GMT 48.604446 0.717653 31,050 243 519 2112
2021-11-23 12:57:20 GMT 48.606636 0.724086 30,875 243 519 2112
2021-11-23 12:57:17 GMT 48.608826 0.730520 30,900 243 520 2304
2021-11-23 12:57:15 GMT 48.612080 0.740204 30,775 243 520 2304
2021-11-23 12:57:12 GMT 48.614967 0.748588 30,500 243 521 2368
2021-11-23 12:57:09 GMT 48.618366 0.758563 30,500 243 521 2368
2021-11-23 12:57:07 GMT 48.620453 0.764747 30,325 243 523 2368
2021-11-23 12:57:05 GMT 48.623116 0.772512 30,375 243 523 2368
2021-11-23 12:57:01 GMT 48.627213 0.784511 30,100 243 524 2240
2021-11-23 12:56:57 GMT 48.631725 0.797810 29,925 243 524 2176
2021-11-23 12:56:55 GMT 48.634186 0.804889 30,025 243 524 2048
2021-11-23 12:56:52 GMT 48.637779 0.815301 29,875 243 524 1344
2021-11-23 12:56:49 GMT 48.640228 0.822496 29,825 243 524 1408
2021-11-23 12:56:46 GMT 48.644669 0.835467 29,725 243 523 1344
2021-11-23 12:56:43 GMT 48.647598 0.843905 29,675 243 522 1408
2021-11-23 12:56:40 GMT 48.652256 0.857512 29,575 243 522 1408
2021-11-23 12:56:37 GMT 48.653732 0.861723 29,525 243 522 1408
2021-11-23 12:56:34 GMT 48.656631 0.870088 29,500 243 522 1408
2021-11-23 12:56:30 GMT 48.662216 0.886279 29,325 243 521 1408
2021-11-23 12:56:27 GMT 48.664684 0.893362 29,125 243 521 1408
2021-11-23 12:56:25 GMT 48.670303 0.909471 28,975 243 518 1472
2021-11-23 12:56:22 GMT 48.670303 0.909471 28,975 243 518 1472
2021-11-23 12:56:19 GMT 48.674461 0.921334 29,125 243 520 1408
2021-11-23 12:56:16 GMT 48.677116 0.928995 29,050 243 519 1408
2021-11-23 12:56:14 GMT 48.679256 0.935139 28,950 243 519 1472
2021-11-23 12:56:10 GMT 48.685215 0.952052 28,850 242 517 1472
2021-11-23 12:56:07 GMT 48.691685 0.970628 28,750 242 517 1408
2021-11-23 12:56:04 GMT 48.691685 0.970628 28,750 242 517 1408
2021-11-23 12:56:02 GMT 48.694611 0.978910 28,675 242 516 1408
2021-11-23 12:55:58 GMT 48.697769 0.987784 28,600 242 515 1408
2021-11-23 12:55:54 GMT 48.702438 1.001164 28,500 243 514 1344
2021-11-23 12:55:51 GMT 48.706348 1.012260 28,350 243 513 1280
2021-11-23 12:55:48 GMT 48.711472 1.026860 28,350 243 511 1344
2021-11-23 12:55:45 GMT 48.711472 1.026860 28,325 243 512 1280
2021-11-23 12:55:42 GMT 48.716080 1.040109 28,300 243 511 1344
2021-11-23 12:55:38 GMT 48.720222 1.052158 28,175 243 510 1344
2021-11-23 12:55:35 GMT 48.722458 1.058807 28,100 244 510 1408
2021-11-23 12:55:33 GMT 48.725098 1.066801 28,050 244 510 1472
2021-11-23 12:55:29 GMT 48.729301 1.079551 27,925 246 509 1472
2021-11-23 12:55:26 GMT 48.733116 1.091766 27,875 247 509 1536
2021-11-23 12:55:23 GMT 48.735123 1.098562 27,625 250 508 1600
2021-11-23 12:55:20 GMT 48.737961 1.108704 27,650 250 508 1600
2021-11-23 12:55:17 GMT 48.740982 1.120253 27,650 251 507 1600
2021-11-23 12:55:15 GMT 48.743404 1.130291 27,600 250 507 1600
2021-11-23 12:55:12 GMT 48.745407 1.138603 27,500 251 507 1600
2021-11-23 12:55:08 GMT 48.748295 1.150962 27,350 252 505 1664
2021-11-23 12:55:05 GMT 48.750000 1.158283 27,350 252 505 1600
2021-11-23 12:55:02 GMT 48.755043 1.181030 27,200 253 505 1664
2021-11-23 12:54:58 GMT 48.755043 1.181030 27,125 253 504 1664
2021-11-23 12:54:55 GMT 48.760117 1.205244 26,950 254 504 1728
2021-11-23 12:54:52 GMT 48.760117 1.205244 26,950 254 504 1728
2021-11-23 12:54:48 GMT 48.764282 1.226525 26,850 254 503 1792
2021-11-23 12:54:45 GMT 48.764282 1.226525 26,750 255 503 1856
2021-11-23 12:54:42 GMT 48.765842 1.235022 26,600 256 503 1856
2021-11-23 12:54:39 GMT 48.768215 1.248249 26,400 256 502 1792
2021-11-23 12:54:36 GMT 48.769867 1.257723 26,225 256 502 1792
2021-11-23 12:54:33 GMT 48.773117 1.277161 26,250 256 501 1728
2021-11-23 12:54:30 GMT 48.773117 1.277161 26,250 256 501 1664
2021-11-23 12:54:27 GMT 48.774902 1.287654 26,025 256 499 1536
2021-11-23 12:54:24 GMT 48.778275 1.307662 26,075 256 499 1472
2021-11-23 12:54:18 GMT 48.782364 1.332374 26,000 257 497 1536
2021-11-23 12:54:15 GMT 48.782364 1.332374 25,900 257 497 1536
2021-11-23 12:54:12 GMT 48.783440 1.339103 25,825 259 496 1728
2021-11-23 12:54:08 GMT 48.786713 1.362234 25,725 259 496 1728
2021-11-23 12:54:05 GMT 48.787674 1.369347 25,650 259 496 1728
2021-11-23 12:54:03 GMT 48.787674 1.369347 25,525 260 496 1728
2021-11-23 12:54:00 GMT 48.790649 1.393926 25,450 261 495 1792
2021-11-23 12:53:56 GMT 48.790649 1.393926 25,325 262 495 1792
2021-11-23 12:53:53 GMT 48.792068 1.406884 25,250 262 494 1792
2021-11-23 12:53:50 GMT 48.792843 1.414417 25,150 263 494 1856
2021-11-23 12:53:47 GMT 48.793495 1.421212 25,150 263 494 1856
2021-11-23 12:53:44 GMT 48.794567 1.433210 25,025 264 493 1856
2021-11-23 12:53:42 GMT 48.795311 1.441739 24,825 264 493 1856
2021-11-23 12:53:38 GMT 48.796288 1.454387 24,850 265 492 1856
2021-11-23 12:53:35 GMT 48.796967 1.464703 24,750 265 492 1856
2021-11-23 12:53:32 GMT 48.797684 1.475637 24,650 266 491 1856
2021-11-23 12:53:28 GMT 48.798523 1.491394 24,500 267 491 1920
2021-11-23 12:53:24 GMT 48.799118 1.505409 24,375 267 490 1984
2021-11-23 12:53:21 GMT 48.799622 1.520832 24,050 268 489 1984
2021-11-23 12:53:19 GMT 48.799622 1.520832 24,175 269 489 1984
2021-11-23 12:53:15 GMT 48.799896 1.534142 24,100 270 489 1920
2021-11-23 12:53:12 GMT 48.800034 1.548861 23,950 270 488 1920
2021-11-23 12:53:07 GMT 48.800079 1.560129 23,850 270 487 1920
2021-11-23 12:53:04 GMT 48.800106 1.568949 23,750 270 486 1920
2021-11-23 12:53:01 GMT 48.800217 1.591750 23,525 270 485 1984
2021-11-23 12:52:58 GMT 48.800262 1.596468 23,475 270 484 1984
2021-11-23 12:52:56 GMT 48.800262 1.596468 23,475 270 484 1984
2021-11-23 12:52:53 GMT 48.800308 1.608370 23,375 270 484 2048
2021-11-23 12:52:50 GMT 48.800430 1.631687 23,075 270 482 2048
2021-11-23 12:52:47 GMT 48.800430 1.631687 23,150 270 483 2048
2021-11-23 12:52:44 GMT 48.800446 1.641822 23,025 270 482 2112
2021-11-23 12:52:41 GMT 48.800480 1.648889 22,825 270 481 2112
2021-11-23 12:52:38 GMT 48.800537 1.659006 22,850 270 481 2176
2021-11-23 12:52:35 GMT 48.800583 1.667387 22,775 270 480 2240
2021-11-23 12:52:33 GMT 48.800617 1.676499 22,625 270 480 2240
2021-11-23 12:52:30 GMT 48.800674 1.685908 22,575 270 479 2240
2021-11-23 12:52:27 GMT 48.800720 1.696261 22,400 270 478 2240
2021-11-23 12:52:23 GMT 48.800758 1.708302 22,350 270 478 2240
2021-11-23 12:52:20 GMT 48.800812 1.718374 22,050 270 476 1984
2021-11-23 12:52:17 GMT 48.800858 1.731403 22,050 270 477 2112
2021-11-23 12:52:13 GMT 48.800896 1.742056 21,850 270 476 1984
2021-11-23 12:52:10 GMT 48.800903 1.752038 21,825 270 475 1856
2021-11-23 12:52:07 GMT 48.800945 1.765329 21,650 270 474 1856
2021-11-23 12:52:04 GMT 48.800945 1.770317 21,400 270 473 1856
2021-11-23 12:52:01 GMT 48.800995 1.781264 21,575 270 473 1856
2021-11-23 12:51:57 GMT 48.801041 1.795772 21,400 270 471 1920
2021-11-23 12:51:54 GMT 48.801083 1.806384 21,350 270 471 1984
2021-11-23 12:51:52 GMT 48.801083 1.813250 21,150 270 470 2112
2021-11-23 12:51:49 GMT 48.801128 1.824164 21,150 270 470 2240
2021-11-23 12:51:46 GMT 48.801174 1.832332 21,075 270 469 2304
2021-11-23 12:51:42 GMT 48.801224 1.855633 20,875 270 468 2304
2021-11-23 12:51:39 GMT 48.801224 1.855633 20,650 270 465 2240
2021-11-23 12:51:35 GMT 48.801270 1.867746 20,475 270 466 2240
2021-11-23 12:51:32 GMT 48.801270 1.876927 20,475 270 466 2240
2021-11-23 12:51:29 GMT 48.801315 1.888347 20,425 270 465 2240
2021-11-23 12:51:25 GMT 48.801315 1.899045 20,300 270 465 2240
2021-11-23 12:51:22 GMT 48.801315 1.909814 20,025 270 458 2304
2021-11-23 12:51:19 GMT 48.801365 1.921162 19,575 270 454 2112
2021-11-23 12:51:16 GMT 48.801361 1.930213 19,925 270 462 2304
2021-11-23 12:51:12 GMT 48.801407 1.945355 19,725 270 460 2368
2021-11-23 12:51:09 GMT 48.801411 1.951157 19,575 270 454 2112
2021-11-23 12:51:06 GMT 48.801453 1.963384 19,325 270 458 2240
2021-11-23 12:51:02 GMT 48.801453 1.973384 19,425 270 457 2240
2021-11-23 12:50:59 GMT 48.801453 1.985215 19,175 270 454 2112
2021-11-23 12:50:56 GMT 48.801498 1.993173 19,150 270 456 2176
2021-11-23 12:50:53 GMT 48.801502 2.013317 19,025 270 455 2112
2021-11-23 12:50:50 GMT 48.801502 2.013317 18,875 270 453 2112
2021-11-23 12:50:47 GMT 48.801498 2.024090 18,775 270 452 2240
2021-11-23 12:50:43 GMT 48.801548 2.047794 18,625 270 451 2304
2021-11-23 12:50:39 GMT 48.801548 2.047794 18,500 270 450 2368
2021-11-23 12:50:36 GMT 48.801544 2.059091 18,400 270 449 2368
2021-11-23 12:50:33 GMT 48.801590 2.069514 18,275 270 449 2304
2021-11-23 12:50:30 GMT 48.801594 2.075766 18,100 270 447 2240
2021-11-23 12:50:27 GMT 48.801594 2.086752 18,075 270 447 2176
2021-11-23 12:50:24 GMT 48.801594 2.092968 18,000 270 446 2176
2021-11-23 12:50:21 GMT 48.801636 2.104234 17,825 271 444 2304
2021-11-23 12:50:18 GMT 48.801594 2.114145 17,375 271 444 2368
2021-11-23 12:50:14 GMT 48.801590 2.125995 17,575 271 443 2496
2021-11-23 12:50:11 GMT 48.801590 2.136207 17,425 271 442 2624
2021-11-23 12:50:08 GMT 48.801548 2.144864 17,325 271 441 2688
2021-11-23 12:50:04 GMT 48.801548 2.158380 17,125 271 439 2688
2021-11-23 12:50:01 GMT 48.801548 2.166114 16,950 271 439 2688
2021-11-23 12:49:58 GMT 48.801548 2.175943 16,625 270 438 2624
2021-11-23 12:49:54 GMT 48.801548 2.186062 16,675 270 438 2560
2021-11-23 12:49:51 GMT 48.801502 2.200157 16,525 270 437 2560
2021-11-23 12:49:48 GMT 48.801498 2.205365 16,400 271 436 2560
2021-11-23 12:49:45 GMT 48.801502 2.214540 16,325 271 436 2560
2021-11-23 12:49:42 GMT 48.801498 2.226140 16,100 270 435 2560
2021-11-23 12:49:39 GMT 48.801498 2.235577 16,000 270 434 2560
2021-11-23 12:49:34 GMT 48.801502 2.248005 15,725 270 432 2688
2021-11-23 12:49:31 GMT 48.801498 2.255930 15,725 270 432 2688
2021-11-23 12:49:28 GMT 48.801456 2.279735 15,450 270 431 2752
2021-11-23 12:49:24 GMT 48.801456 2.279735 15,300 270 430 2816
2021-11-23 12:49:21 GMT 48.801453 2.289382 15,225 271 429 2816
2021-11-23 12:49:18 GMT 48.801456 2.294842 14,950 271 428 2752
2021-11-23 12:49:15 GMT 48.801456 2.305900 14,950 271 428 2816
2021-11-23 12:49:12 GMT 48.801453 2.313115 14,825 271 428 2752
2021-11-23 12:49:09 GMT 48.801407 2.323327 14,650 271 427 2752
2021-11-23 12:49:06 GMT 48.801361 2.333468 14,525 270 426 2752
2021-11-23 12:49:03 GMT 48.801453 2.345088 14,350 269 425 2752
2021-11-23 12:49:00 GMT 48.801544 2.350440 14,275 268 424 2752
2021-11-23 12:48:56 GMT 48.801956 2.363469 14,075 266 423 2752
2021-11-23 12:48:53 GMT 48.802780 2.380019 13,925 265 421 2752
2021-11-23 12:48:50 GMT 48.802780 2.380019 13,750 264 420 2752
2021-11-23 12:48:47 GMT 48.803375 2.389104 13,625 264 419 2752
2021-11-23 12:48:44 GMT 48.803875 2.396104 13,475 262 418 2688
2021-11-23 12:48:41 GMT 48.804611 2.404597 13,450 262 418 2688
2021-11-23 12:48:38 GMT 48.805756 2.416218 13,275 261 417 2560
2021-11-23 12:48:34 GMT 48.806763 2.425087 13,125 260 415 2560
2021-11-23 12:48:31 GMT 48.808182 2.436289 12,900 258 413 2624
2021-11-23 12:48:28 GMT 48.809181 2.443374 12,825 257 412 2688
2021-11-23 12:48:25 GMT 48.810486 2.452120 12,550 257 410 2624
2021-11-23 12:48:22 GMT 48.811882 2.460793 12,525 257 410 2752
2021-11-23 12:48:19 GMT 48.813354 2.470304 12,375 257 410 2624
2021-11-23 12:48:16 GMT 48.814453 2.477347 12,250 257 408 2496
2021-11-23 12:48:13 GMT 48.815796 2.485657 12,125 257 407 2304
2021-11-23 12:48:09 GMT 48.817471 2.496499 11,250 257 402 1856
2021-11-23 12:48:06 GMT 48.818634 2.503943 11,950 257 402 1856
2021-11-23 12:48:03 GMT 48.820221 2.513827 11,825 257 399 1472
2021-11-23 12:48:00 GMT 48.821659 2.523097 11,750 257 395 1280
2021-11-23 12:47:57 GMT 48.822556 2.529039 11,675 257 392 1280
2021-11-23 12:47:54 GMT 48.823792 2.536856 11,675 257 391 1280
2021-11-23 12:47:51 GMT 48.824936 2.544321 11,600 257 388 1280
2021-11-23 12:47:48 GMT 48.826492 2.554110 11,525 257 384 1280
2021-11-23 12:47:45 GMT 48.827618 2.561405 11,450 257 381 1280
2021-11-23 12:47:42 GMT 48.828918 2.569744 11,400 257 375 1216
2021-11-23 12:47:38 GMT 48.830566 2.580590 11,300 257 373 1216
2021-11-23 12:47:35 GMT 48.831669 2.587714 11,250 257 369 1216
2021-11-23 12:47:32 GMT 48.833111 2.597110 11,175 257 365 1216
2021-11-23 12:47:29 GMT 48.833996 2.602892 10,450 257 350 1152
2021-11-23 12:47:26 GMT 48.835098 2.610098 11,050 257 361 1216
2021-11-23 12:47:23 GMT 48.836464 2.619011 11,000 257 359 1216
2021-11-23 12:47:17 GMT 48.838440 2.632000 10,800 257 353 1152
2021-11-23 12:47:11 GMT 48.841599 2.652846 10,725 257 344 1024
2021-11-23 12:47:08 GMT 48.843018 2.662001 10,700 257 343 1024
2021-11-23 12:47:05 GMT 48.843018 2.662001 10,675 257 341 1024
2021-11-23 12:47:01 GMT 48.844330 2.670401 10,600 257 337 960
2021-11-23 12:46:57 GMT 48.845810 2.679608 10,550 257 333 960
2021-11-23 12:46:52 GMT 48.847641 2.690946 10,450 256 325 960
2021-11-23 12:46:49 GMT 48.848988 2.698951 10,400 256 325 960
2021-11-23 12:46:46 GMT 48.849655 2.702918 10,375 256 320 1408
2021-11-23 12:46:43 GMT 48.850891 2.710172 10,325 257 320 1664
2021-11-23 12:46:40 GMT 48.851944 2.716510 10,250 257 319 1856
2021-11-23 12:46:37 GMT 48.854050 2.729962 10,125 257 318 2304
2021-11-23 12:46:34 GMT 48.854050 2.729962 9,700 254 316 2496
2021-11-23 12:46:30 GMT 48.855194 2.737568 9,875 257 317 2432
2021-11-23 12:46:26 GMT 48.856659 2.746441 9,575 250 316 2560
2021-11-23 12:46:21 GMT 48.858902 2.756794 9,425 244 315 2496
2021-11-23 12:46:18 GMT 48.861649 2.765597 9,300 239 315 2304
2021-11-23 12:46:15 GMT 48.863480 2.770386 9,225 236 314 2240
2021-11-23 12:46:12 GMT 48.866364 2.776442 9,050 228 312 1792
2021-11-23 12:46:06 GMT 48.871330 2.784673 8,950 220 309 1664
2021-11-23 12:46:03 GMT 48.874969 2.789612 8,675 208 302 2048
2021-11-23 12:46:00 GMT 48.877579 2.792570 8,800 213 305 1792
2021-11-23 12:45:55 GMT 48.883392 2.798133 8,600 199 296 2112
2021-11-23 12:45:51 GMT 48.890030 2.802852 8,475 200 296 2112
2021-11-23 12:45:48 GMT 48.893116 2.804549 8,375 196 295 2048
2021-11-23 12:45:45 GMT 48.896484 2.806091 8,300 194 292 1920
2021-11-23 12:45:40 GMT 48.902893 2.808345 8,100 188 283 2176
2021-11-23 12:45:37 GMT 48.907883 2.809613 8,025 188 284 1984
2021-11-23 12:45:34 GMT 48.911270 2.810387 7,975 188 283 2112
2021-11-23 12:45:30 GMT 48.916206 2.811344 7,650 188 281 2240
2021-11-23 12:45:25 GMT 48.922028 2.812428 7,650 188 281 2240
2021-11-23 12:45:22 GMT 48.926540 2.813295 7,525 188 280 2240
2021-11-23 12:45:19 GMT 48.930546 2.814090 7,425 188 280 2240
2021-11-23 12:45:16 GMT 48.935165 2.814965 7,275 187 279 2432
2021-11-23 12:45:12 GMT 48.942974 2.816403 7,025 187 278 2432
2021-11-23 12:45:09 GMT 48.942974 2.816403 7,025 187 278 2432
2021-11-23 12:45:05 GMT 48.948074 2.817289 6,875 187 278 2496
2021-11-23 12:44:59 GMT 48.955994 2.818557 6,600 186 278 2688
2021-11-23 12:44:55 GMT 48.960754 2.819261 6,200 176 276 2496
2021-11-23 12:44:50 GMT 48.967667 2.819824 6,125 176 276 2496
2021-11-23 12:44:47 GMT 48.975449 2.818979 6,000 170 270 2304
2021-11-23 12:44:44 GMT 48.975449 2.818979 5,950 167 268 2304
2021-11-23 12:44:38 GMT 48.981705 2.816620 5,750 158 262 2176
2021-11-23 12:44:35 GMT 48.986069 2.813909 5,625 151 258 2240
2021-11-23 12:44:31 GMT 48.990143 2.810528 5,350 138 253 2368
2021-11-23 12:44:28 GMT 48.992981 2.807641 5,300 135 248 2240
2021-11-23 12:44:25 GMT 48.995682 2.804049 5,225 133 247 2112
2021-11-23 12:44:22 GMT 48.998749 2.799049 5,100 127 244 1792
2021-11-23 12:44:19 GMT 49.000122 2.796302 5,025 118 238 1600
2021-11-23 12:44:16 GMT 49.001953 2.791865 4,975 116 237 1600
2021-11-23 12:44:13 GMT 49.003490 2.787419 4,900 113 234 1664
2021-11-23 12:44:09 GMT 49.005028 2.781420 4,750 106 230 2240
2021-11-23 12:44:06 GMT 49.005890 2.776724 4,625 98 228 2624
2021-11-23 12:44:03 GMT 49.006424 2.771952 4,500 92 227 2432
2021-11-23 12:43:59 GMT 49.006622 2.765879 4,350 89 227 2112
2021-11-23 12:43:55 GMT 49.006287 2.753087 4,100 85 223 1664
2021-11-23 12:43:51 GMT 49.006287 2.753087 4,100 85 220 1472
2021-11-23 12:43:48 GMT 49.006027 2.747920 4,025 85 219 1472
2021-11-23 12:43:44 GMT 49.005680 2.740583 3,900 85 215 1408
2021-11-23 12:43:41 GMT 49.005569 2.737779 3,875 85 213 1472
2021-11-23 12:43:37 GMT 49.005260 2.731910 3,775 85 211 1536
2021-11-23 12:43:34 GMT 49.005074 2.727645 3,600 85 188 896
2021-11-23 12:43:29 GMT 49.004658 2.719694 3,575 85 200 832
2021-11-23 12:43:26 GMT 49.004517 2.716442 3,575 85 197 832
2021-11-23 12:43:23 GMT 49.004284 2.712467 3,550 85 193 832
2021-11-23 12:43:17 GMT 49.003784 2.703200 3,450 85 184 960
2021-11-23 12:43:14 GMT 49.003586 2.699962 3,400 84 181 960
2021-11-23 12:43:11 GMT 49.003326 2.695242 3,350 85 178 960
2021-11-23 12:43:06 GMT 49.003052 2.690101 3,275 85 171 1088
2021-11-23 12:43:03 GMT 49.002869 2.686369 3,250 85 171 1216
2021-11-23 12:43:00 GMT 49.002686 2.682847 3,025 84 166 1920
2021-11-23 12:42:56 GMT 49.002274 2.674819 3,025 84 166 1920
2021-11-23 12:42:53 GMT 49.002274 2.674819 2,975 84 166 1984
2021-11-23 12:42:48 GMT 49.001862 2.668449 2,850 84 165 2176
2021-11-23 12:42:44 GMT 49.001541 2.663339 2,650 84 165 2240
2021-11-23 12:42:40 GMT 49.000946 2.654395 2,425 84 166 2432
2021-11-23 12:42:36 GMT 49.000946 2.654395 2,275 84 166 2624
2021-11-23 12:42:33 GMT 49.000748 2.650668 2,200 84 167 2688
2021-11-23 12:42:28 GMT 49.000420 2.645392 2,000 84 170 2688
2021-11-23 12:42:25 GMT 48.999985 2.637986 1,825 84 170 2752
2021-11-23 12:42:22 GMT 48.999985 2.637986 1,750 84 171 2816
2021-11-23 12:42:19 GMT 48.999756 2.634254 1,575 84 171 2752
2021-11-23 12:42:16 GMT 48.999527 2.630310 1,425 84 171 2752
2021-11-23 12:42:13 GMT 48.999344 2.627071 1,275 85 171 2816
2021-11-23 12:42:07 GMT 48.998978 2.620028 1,050 86 172 2752
2021-11-23 12:42:03 GMT 48.998745 2.615180 825 86 173 2752
2021-11-23 12:41:59 GMT 48.998566 2.610380 600 86 173 2816
2021-11-23 12:41:53 GMT 48.998245 2.603056 300 86 175 2752
2021-11-23 12:41:49 GMT 48.998062 2.598196 125 86 177 2496
2021-11-23 12:41:34 GMT 48.997162 2.580703 -50 85 143 -64
2021-11-23 12:41:16 GMT 48.996346 2.565055 0 84 74
2021-11-23 12:41:08 GMT 48.996162 2.561557 0 84 43
2021-11-23 12:40:59 GMT 48.996067 2.559724 0 84 10
2021-11-23 12:40:48 GMT 48.996033 2.559164 0 90 7
2021-11-23 12:40:41 GMT 48.995991 2.558829 0 104 8
2021-11-23 12:40:37 GMT 48.995956 2.558635 0 129 8
2021-11-23 12:40:29 GMT 48.996136 2.558260 0 174 9
2021-11-23 12:40:18 GMT 48.996574 2.558212 0 177 9
2021-11-23 12:40:07 GMT 48.996929 2.558170 0 174 5
2021-11-23 12:39:52 GMT 48.997204 2.558142 0 174 0
2021-11-23 12:39:47 GMT 48.997242 2.558134 0 174 0
2021-11-23 12:39:37 GMT 48.997265 2.558134 0 174 0
2021-11-23 12:39:27 GMT 48.997261 2.558142 0 174 0
2021-11-23 12:39:18 GMT 48.997288 2.558134 0 174 4
2021-11-23 12:39:07 GMT 48.997520 2.558098 0 174 8
2021-11-23 12:38:56 GMT 48.997917 2.558044 0 174 8
2021-11-23 12:38:47 GMT 48.998257 2.558007 0 177 9
2021-11-23 12:38:37 GMT 48.998634 2.557913 0 199 8
2021-11-23 12:38:21 GMT 48.999081 2.558300 0 278 8
2021-11-23 12:38:13 GMT 48.999035 2.558758 0 284 10
2021-11-23 12:38:06 GMT 48.998966 2.559198 0 281 11
2021-11-23 12:37:57 GMT 48.998882 2.559995 0 267 12
2021-11-23 12:37:50 GMT 48.998909 2.560536 0 264 12
2021-11-23 12:37:44 GMT 48.998943 2.561061 0 264 15
2021-11-23 12:37:35 GMT 48.999001 2.561998 0 264 15
2021-11-23 12:37:24 GMT 48.999058 2.563139 0 264 15
2021-11-23 12:37:16 GMT 48.999104 2.563987 0 264 16
2021-11-23 12:37:03 GMT 48.999176 2.565326 0 264 15
2021-11-23 12:36:56 GMT 48.999218 2.566118 0 264 14
2021-11-23 12:36:45 GMT 48.999268 2.567115 0 264 14
2021-11-23 12:36:40 GMT 48.999298 2.567649 0 264 14
2021-11-23 12:36:35 GMT 48.999321 2.568142 0 264 14
2021-11-23 12:36:32 GMT 48.999336 2.568343 0 264 15
2021-11-23 12:36:22 GMT 48.999390 2.569427 0 264 14
2021-11-23 12:36:15 GMT 48.999435 2.570079 0 264 14
2021-11-23 12:36:11 GMT 48.999447 2.570484 0 264 14
2021-11-23 12:36:04 GMT 48.999489 2.571108 0 264 15
2021-11-23 12:36:01 GMT 48.999512 2.571469 0 264 15
2021-11-23 12:35:54 GMT 48.999546 2.572156 0 264 15
2021-11-23 12:35:51 GMT 48.999557 2.572463 0 264 15
2021-11-23 12:35:44 GMT 48.999596 2.573150 0 264 15
2021-11-23 12:35:40 GMT 48.999619 2.573547 0 264 15
2021-11-23 12:35:35 GMT 48.999653 2.574180 0 264 15
2021-11-23 12:35:30 GMT 48.999676 2.574632 0 264 15
2021-11-23 12:35:24 GMT 48.999699 2.575228 0 264 15
2021-11-23 12:35:13 GMT 48.999767 2.576329 0 264 14
2021-11-23 12:34:53 GMT 48.999851 2.578011 0 264 12
2021-11-23 12:32:55 GMT 49.000793 2.580414 0 84 8
2021-11-23 12:32:49 GMT 49.000771 2.580161 0 84 8
2021-11-23 12:32:42 GMT 49.000759 2.579763 0 87 7
2021-11-23 12:32:30 GMT 49.000732 2.579312 0 84 4
2021-11-23 12:32:08 GMT 49.000725 2.579095 0 84 0
2021-11-23 12:31:18 GMT 49.000717 2.579093 0 84 0
2021-11-23 12:31:08 GMT 49.000725 2.579095 0 84 0
2021-11-23 12:30:42 GMT 49.000717 2.579093 0 84 0
2021-11-23 12:30:32 GMT 49.000725 2.579095 0 84 0
2021-11-23 12:29:57 GMT 49.000717 2.579093 0 84 0
2021-11-23 12:29:42 GMT 49.000725 2.579095 0 84 0
2021-11-23 12:29:37 GMT 49.000717 2.579093 0 84 0
2021-11-23 12:29:22 GMT 49.000725 2.579095 0 84 0
2021-11-23 12:29:12 GMT 49.000717 2.579093 0 84 0
2021-11-23 12:28:38 GMT 49.000725 2.579095 0 84 0
2021-11-23 12:28:08 GMT 49.000717 2.579093 0 84 0
2021-11-23 12:27:43 GMT 49.000725 2.579095 0 84 0
2021-11-23 12:27:29 GMT 49.000717 2.579093 0 84 0
2021-11-23 12:27:15 GMT 49.000725 2.579095 0 84 0
2021-11-23 12:27:08 GMT 49.000717 2.579093 0 84 0
2021-11-23 12:26:58 GMT 49.000725 2.579095 0 84 0
2021-11-23 12:26:48 GMT 49.000717 2.579058 0 84 3
2021-11-23 12:26:36 GMT 49.000710 2.578878 0 84 3
2021-11-23 12:26:22 GMT 49.000694 2.578618 0 84 3
2021-11-23 12:26:18 GMT 49.000683 2.578530 0 84 3
2021-11-23 12:26:04 GMT 49.000675 2.578300 0 84 3
2021-11-23 12:25:56 GMT 49.000660 2.578125 0 87 3
2021-11-23 12:25:46 GMT 49.000652 2.577938 0 84 3
2021-11-23 12:25:35 GMT 49.000648 2.577720 0 84 3
2021-11-23 12:25:25 GMT 49.000637 2.577526 0 84 3
2021-11-23 12:25:16 GMT 49.000629 2.577378 0 84 3
2021-11-23 12:25:06 GMT 49.000614 2.577227 0 84 3
2021-11-23 12:24:55 GMT 49.000603 2.577033 0 84 2
2021-11-23 12:24:46 GMT 49.000607 2.576981 0 84 1

Making use of Plane Finder data

You are free to use the raw flight data, aircraft information and images provided in this report for your own purposes provided the data is correctly attributed to Plane Finder. We ask that you please credit Plane Finder and link to planefinder.net in close proximity to the content.

Optionally one of the following logos (no smaller then 150x24px) can be used and must link to planefinder.net

Embedding the Plane Finder map

You are welcome to embed the Plane Finder playback map on your website to offer visitors a more interactive experience. We suggest using the following HTML code:

<iframe src="//planefinder.net/data/report/AF762-F-GSQO-7700-squawk-2021-11-23/map" width="800" height="600" seamless="seamless"></iframe>

Where our data comes from

Plane Finder has a global network of data feeds and antenna radars that receive data broadcast directly from aircraft. The primary technologies used are ADS-B and MLAT. We also show feeds from the FAA and a FLARM glider feed.

Click here to find out more about the Plane Finder network.

How we collect our data